SAS1946 KDFW-ENGM
Flight info
| Callsign | SAS1946 |
|---|---|
| Flight time | 9h 0m |
| Altitude | 37000 |
| Route | GRABE8 EAKER DCT MIDEE DCT RZC DCT KM42K DCT ESTEE DCT PXV DCT ROD DCT SVM DCT KARIT DCT SILVU DCT ULAMO DCT 5081N DCT 5280N/N0498F390 DCT TEXEX DCT LEVUN DCT VODEK DCT NALDI/M085F390 DCT AVPUT DCT 6650N DCT 6640N/M085F410 DCT 6530N DCT 6520N DCT IPTON/N0497F410 DCT DOPUX/N0389F130 Z135 ADOPI ADOPI3L |
| Aircraft | A359/H-SDE2E3GHIJ3J4J5LM1ORWXY/LB1D1 |
Departure
| Time | 2026-05-05 12:37 |
|---|---|
| Airport | Dallas Fort Worth International Airport (KDFW) |
Arrival
| Time | 2026-05-05 21:37 |
|---|---|
| Airport | Oslo-Gardermoen International Airport (ENGM) |
| Time | Latitude | Longitude | Altitude | Speed | Heading |
|---|---|---|---|---|---|
| 2026-05-05 12:13 | 32.90294 | -97.04536 | 613 ft | 0 kts | 62° |
| 2026-05-05 12:29 | 32.90288 | -97.04557 | 622 ft | 3 kts | 87° |
| 2026-05-05 12:29 | 32.90288 | -97.04579 | 624 ft | 3 kts | 105° |
| 2026-05-05 12:29 | 32.90296 | -97.04599 | 637 ft | 3 kts | 144° |
| 2026-05-05 12:30 | 32.90298 | -97.04601 | 637 ft | 0 kts | 146° |
| 2026-05-05 12:30 | 32.90296 | -97.04600 | 637 ft | 3 kts | 146° |
| 2026-05-05 12:31 | 32.90246 | -97.04556 | 632 ft | 11 kts | 142° |
| 2026-05-05 12:31 | 32.90180 | -97.04504 | 629 ft | 11 kts | 160° |
| 2026-05-05 12:31 | 32.90135 | -97.04524 | 635 ft | 3 kts | 255° |
| 2026-05-05 12:31 | 32.90135 | -97.04555 | 633 ft | 4 kts | 270° |
| 2026-05-05 12:32 | 32.90135 | -97.04597 | 631 ft | 7 kts | 270° |
| 2026-05-05 12:32 | 32.90135 | -97.04660 | 631 ft | 8 kts | 270° |
| 2026-05-05 12:32 | 32.90139 | -97.04731 | 629 ft | 9 kts | 285° |
| 2026-05-05 12:32 | 32.90183 | -97.04760 | 632 ft | 7 kts | 357° |
| 2026-05-05 12:33 | 32.90254 | -97.04763 | 631 ft | 17 kts | 359° |
| 2026-05-05 12:33 | 32.90400 | -97.04763 | 628 ft | 22 kts | 360° |
| 2026-05-05 12:33 | 32.90556 | -97.04763 | 628 ft | 23 kts | 0° |
| 2026-05-05 12:33 | 32.90718 | -97.04761 | 628 ft | 24 kts | 0° |
| 2026-05-05 12:34 | 32.90885 | -97.04760 | 628 ft | 24 kts | 0° |
| 2026-05-05 12:34 | 32.91050 | -97.04788 | 628 ft | 24 kts | 350° |
| 2026-05-05 12:34 | 32.91216 | -97.04793 | 631 ft | 24 kts | 0° |
| 2026-05-05 12:34 | 32.91386 | -97.04791 | 633 ft | 25 kts | 0° |
| 2026-05-05 12:35 | 32.91507 | -97.04790 | 628 ft | 10 kts | 358° |
| 2026-05-05 12:35 | 32.91570 | -97.04858 | 635 ft | 14 kts | 280° |
| 2026-05-05 12:35 | 32.91571 | -97.04976 | 632 ft | 15 kts | 270° |
| 2026-05-05 12:35 | 32.91553 | -97.05070 | 633 ft | 5 kts | 212° |
| 2026-05-05 12:36 | 32.91524 | -97.05072 | 630 ft | 0 kts | 180° |
| 2026-05-05 12:36 | 32.91496 | -97.05072 | 628 ft | 22 kts | 180° |
| 2026-05-05 12:36 | 32.91132 | -97.05074 | 629 ft | 81 kts | 180° |
| 2026-05-05 12:36 | 32.90395 | -97.05078 | 628 ft | 130 kts | 180° |
| 2026-05-05 12:37 | 32.89351 | -97.05087 | 725 ft | 162 kts | 181° |
| 2026-05-05 12:37 | 32.88266 | -97.05099 | 1312 ft | 156 kts | 183° |
| 2026-05-05 12:37 | 32.87145 | -97.05190 | 1619 ft | 168 kts | 189° |
| 2026-05-05 12:37 | 32.85932 | -97.05446 | 1849 ft | 184 kts | 198° |
| 2026-05-05 12:38 | 32.84682 | -97.05824 | 2398 ft | 189 kts | 201° |
| 2026-05-05 12:38 | 32.83346 | -97.06256 | 2637 ft | 209 kts | 203° |
| 2026-05-05 12:38 | 32.81891 | -97.06732 | 2945 ft | 223 kts | 202° |
| 2026-05-05 12:38 | 32.80360 | -97.07222 | 3371 ft | 233 kts | 202° |
| 2026-05-05 12:39 | 32.78838 | -97.07925 | 3825 ft | 235 kts | 217° |
| 2026-05-05 12:39 | 32.77654 | -97.09221 | 4304 ft | 234 kts | 239° |
| 2026-05-05 12:39 | 32.77023 | -97.10999 | 4776 ft | 236 kts | 258° |
| 2026-05-05 12:39 | 32.76690 | -97.12920 | 5313 ft | 239 kts | 261° |
| 2026-05-05 12:40 | 32.76572 | -97.14892 | 5863 ft | 242 kts | 272° |
| 2026-05-05 12:40 | 32.76674 | -97.16925 | 6262 ft | 250 kts | 275° |
| 2026-05-05 12:40 | 32.76816 | -97.18978 | 6762 ft | 254 kts | 274° |
| 2026-05-05 12:40 | 32.76988 | -97.21103 | 7323 ft | 256 kts | 278° |
| 2026-05-05 12:41 | 32.77535 | -97.23098 | 7886 ft | 261 kts | 297° |
| 2026-05-05 12:41 | 32.78744 | -97.24736 | 8496 ft | 271 kts | 320° |
| 2026-05-05 12:41 | 32.80437 | -97.25786 | 9145 ft | 279 kts | 332° |
| 2026-05-05 12:41 | 32.82254 | -97.26636 | 9774 ft | 282 kts | 333° |
| 2026-05-05 12:42 | 32.84177 | -97.27340 | 10121 ft | 302 kts | 345° |
| 2026-05-05 12:42 | 32.86357 | -97.27480 | 10384 ft | 323 kts | 355° |
| 2026-05-05 12:42 | 32.88663 | -97.27410 | 10629 ft | 340 kts | 356° |
| 2026-05-05 12:42 | 32.91076 | -97.27322 | 10871 ft | 354 kts | 356° |
| 2026-05-05 12:43 | 32.93593 | -97.27242 | 11096 ft | 367 kts | 356° |
| 2026-05-05 12:43 | 32.96190 | -97.27167 | 11359 ft | 378 kts | 356° |
| 2026-05-05 12:43 | 32.98850 | -97.26982 | 11744 ft | 388 kts | 2° |
| 2026-05-05 12:43 | 33.01482 | -97.26093 | 12231 ft | 401 kts | 19° |
| 2026-05-05 12:44 | 33.03981 | -97.24531 | 12732 ft | 408 kts | 24° |
| 2026-05-05 12:44 | 33.06455 | -97.22822 | 13201 ft | 412 kts | 25° |
| 2026-05-05 12:44 | 33.08910 | -97.21117 | 13679 ft | 415 kts | 24° |
| 2026-05-05 12:44 | 33.11420 | -97.19382 | 14124 ft | 418 kts | 24° |
| 2026-05-05 12:45 | 33.13949 | -97.17641 | 14561 ft | 421 kts | 24° |
| 2026-05-05 12:45 | 33.16490 | -97.15894 | 15004 ft | 423 kts | 24° |
| 2026-05-05 12:45 | 33.19062 | -97.14127 | 15446 ft | 426 kts | 24° |
| 2026-05-05 12:45 | 33.21636 | -97.12359 | 15887 ft | 429 kts | 24° |
| 2026-05-05 12:46 | 33.24228 | -97.10578 | 16333 ft | 431 kts | 24° |
| 2026-05-05 12:46 | 33.26841 | -97.08782 | 16757 ft | 435 kts | 23° |
| 2026-05-05 12:46 | 33.29471 | -97.06974 | 17185 ft | 438 kts | 23° |
| 2026-05-05 12:46 | 33.32122 | -97.05149 | 17624 ft | 440 kts | 23° |
| 2026-05-05 12:47 | 33.34754 | -97.03336 | 18051 ft | 443 kts | 23° |
| 2026-05-05 12:47 | 33.37438 | -97.01487 | 18435 ft | 446 kts | 23° |
| 2026-05-05 12:47 | 33.40136 | -96.99627 | 18810 ft | 449 kts | 23° |
| 2026-05-05 12:47 | 33.42852 | -96.97754 | 19197 ft | 452 kts | 23° |
| 2026-05-05 12:48 | 33.45647 | -96.96069 | 19574 ft | 448 kts | 15° |
| 2026-05-05 12:48 | 33.48566 | -96.94802 | 19976 ft | 446 kts | 11° |
| 2026-05-05 12:48 | 33.51532 | -96.93641 | 20345 ft | 450 kts | 11° |
| 2026-05-05 12:48 | 33.54530 | -96.92479 | 20725 ft | 453 kts | 11° |
| 2026-05-05 12:49 | 33.57539 | -96.91309 | 21124 ft | 456 kts | 11° |
| 2026-05-05 12:49 | 33.60568 | -96.90127 | 21524 ft | 459 kts | 11° |
| 2026-05-05 12:49 | 33.63623 | -96.88932 | 21917 ft | 462 kts | 11° |
| 2026-05-05 12:49 | 33.66687 | -96.87731 | 22300 ft | 465 kts | 11° |
| 2026-05-05 12:50 | 33.69772 | -96.86521 | 22690 ft | 468 kts | 11° |
| 2026-05-05 12:50 | 33.72878 | -96.85301 | 23077 ft | 471 kts | 11° |
| 2026-05-05 12:50 | 33.76002 | -96.84074 | 23412 ft | 474 kts | 11° |
| 2026-05-05 12:50 | 33.79132 | -96.82841 | 23886 ft | 472 kts | 11° |
| 2026-05-05 12:51 | 33.82216 | -96.81625 | 24259 ft | 474 kts | 11° |
| 2026-05-05 12:51 | 33.85359 | -96.80387 | 24587 ft | 477 kts | 11° |
| 2026-05-05 12:51 | 33.88529 | -96.79138 | 24942 ft | 480 kts | 11° |
| 2026-05-05 12:51 | 33.91710 | -96.77883 | 25313 ft | 482 kts | 10° |
| 2026-05-05 12:52 | 33.94909 | -96.76620 | 25667 ft | 485 kts | 10° |
| 2026-05-05 12:52 | 33.98122 | -96.75350 | 26041 ft | 487 kts | 9° |
| 2026-05-05 12:52 | 34.01349 | -96.74073 | 26396 ft | 489 kts | 9° |
| 2026-05-05 12:52 | 34.04592 | -96.72790 | 26788 ft | 491 kts | 9° |
| 2026-05-05 12:53 | 34.07844 | -96.71500 | 27197 ft | 493 kts | 9° |
| 2026-05-05 12:53 | 34.11105 | -96.70207 | 27536 ft | 495 kts | 9° |
| 2026-05-05 12:53 | 34.14387 | -96.68905 | 27861 ft | 498 kts | 9° |
| 2026-05-05 12:53 | 34.17684 | -96.67596 | 28203 ft | 500 kts | 8° |
| 2026-05-05 12:54 | 34.24325 | -96.64955 | 28839 ft | 505 kts | 8° |
| 2026-05-05 12:54 | 34.27665 | -96.63626 | 29133 ft | 507 kts | 8° |
| 2026-05-05 12:54 | 34.30979 | -96.62275 | 29444 ft | 512 kts | 11° |
| 2026-05-05 12:55 | 34.34316 | -96.60638 | 29682 ft | 519 kts | 13° |
| 2026-05-05 12:55 | 34.37638 | -96.58869 | 29907 ft | 523 kts | 14° |
| 2026-05-05 12:55 | 34.40958 | -96.57030 | 30222 ft | 524 kts | 15° |
| 2026-05-05 12:55 | 34.44271 | -96.55167 | 30540 ft | 524 kts | 15° |
| 2026-05-05 12:56 | 34.47575 | -96.53306 | 30844 ft | 524 kts | 15° |
| 2026-05-05 12:56 | 34.50888 | -96.51448 | 31144 ft | 524 kts | 14° |
| 2026-05-05 12:56 | 34.54197 | -96.49600 | 31444 ft | 523 kts | 14° |
| 2026-05-05 12:56 | 34.57505 | -96.47759 | 31758 ft | 524 kts | 14° |
| 2026-05-05 12:57 | 34.60789 | -96.45939 | 31907 ft | 527 kts | 14° |
| 2026-05-05 12:57 | 34.64121 | -96.44090 | 32275 ft | 525 kts | 14° |
| 2026-05-05 12:57 | 34.67436 | -96.42246 | 32611 ft | 524 kts | 14° |
| 2026-05-05 12:57 | 34.70761 | -96.40397 | 32881 ft | 524 kts | 13° |
| 2026-05-05 12:58 | 34.74075 | -96.38553 | 33166 ft | 524 kts | 13° |
| 2026-05-05 12:58 | 34.77396 | -96.36703 | 33454 ft | 524 kts | 13° |
| 2026-05-05 12:58 | 34.80709 | -96.34857 | 33702 ft | 524 kts | 13° |
| 2026-05-05 12:58 | 34.84023 | -96.33007 | 33963 ft | 523 kts | 13° |
| 2026-05-05 12:59 | 34.87328 | -96.31161 | 34202 ft | 523 kts | 13° |
| 2026-05-05 12:59 | 34.90633 | -96.29313 | 34455 ft | 522 kts | 13° |
| 2026-05-05 12:59 | 34.93930 | -96.27468 | 34698 ft | 521 kts | 12° |
| 2026-05-05 13:00 | 34.99402 | -96.24400 | 35101 ft | 520 kts | 12° |
| 2026-05-05 13:00 | 35.02684 | -96.22558 | 35332 ft | 519 kts | 12° |
| 2026-05-05 13:01 | 35.12507 | -96.17039 | 36035 ft | 516 kts | 12° |
| 2026-05-05 13:01 | 35.16807 | -96.14544 | 36291 ft | 522 kts | 15° |
| 2026-05-05 13:01 | 35.18942 | -96.12994 | 36389 ft | 533 kts | 22° |
| 2026-05-05 13:01 | 35.21873 | -96.10192 | 36552 ft | 550 kts | 32° |
| 2026-05-05 13:02 | 35.24481 | -96.06672 | 36713 ft | 567 kts | 44° |
| 2026-05-05 13:02 | 35.26785 | -96.02731 | 36871 ft | 571 kts | 47° |
| 2026-05-05 13:02 | 35.28986 | -95.98661 | 36995 ft | 574 kts | 48° |
| 2026-05-05 13:02 | 35.31133 | -95.94530 | 37131 ft | 575 kts | 49° |
| 2026-05-05 13:03 | 35.33260 | -95.90382 | 37263 ft | 576 kts | 49° |
| 2026-05-05 13:03 | 35.35397 | -95.86220 | 37406 ft | 575 kts | 49° |
| 2026-05-05 13:03 | 35.37537 | -95.82080 | 37571 ft | 575 kts | 48° |
| 2026-05-05 13:03 | 35.39690 | -95.77945 | 37673 ft | 575 kts | 48° |
| 2026-05-05 13:04 | 35.41847 | -95.73818 | 37803 ft | 575 kts | 48° |
| 2026-05-05 13:04 | 35.44010 | -95.69687 | 37933 ft | 574 kts | 48° |
| 2026-05-05 13:04 | 35.46166 | -95.65569 | 38104 ft | 573 kts | 48° |
| 2026-05-05 13:04 | 35.48314 | -95.61462 | 38253 ft | 572 kts | 48° |
| 2026-05-05 13:05 | 35.50469 | -95.57340 | 38354 ft | 573 kts | 48° |
| 2026-05-05 13:05 | 35.52619 | -95.53222 | 38437 ft | 573 kts | 48° |
| 2026-05-05 13:05 | 35.54763 | -95.49108 | 38546 ft | 572 kts | 48° |
| 2026-05-05 13:05 | 35.56904 | -95.44992 | 38649 ft | 572 kts | 48° |
| 2026-05-05 13:06 | 35.61183 | -95.36749 | 38801 ft | 572 kts | 48° |
| 2026-05-05 13:06 | 35.63292 | -95.32680 | 38915 ft | 571 kts | 48° |
| 2026-05-05 13:06 | 35.65421 | -95.28567 | 39040 ft | 570 kts | 48° |
| 2026-05-05 13:07 | 35.69682 | -95.20323 | 39168 ft | 570 kts | 48° |
| 2026-05-05 13:07 | 35.73922 | -95.12099 | 39308 ft | 569 kts | 48° |
| 2026-05-05 13:08 | 35.78159 | -95.03864 | 39395 ft | 569 kts | 48° |
| 2026-05-05 13:08 | 35.82386 | -94.95625 | 39507 ft | 569 kts | 48° |
| 2026-05-05 13:09 | 35.84498 | -94.91499 | 39615 ft | 567 kts | 48° |
| 2026-05-05 13:09 | 35.86602 | -94.87386 | 39692 ft | 567 kts | 49° |
| 2026-05-05 13:09 | 35.90808 | -94.79149 | 39779 ft | 567 kts | 49° |
| 2026-05-05 13:10 | 35.94983 | -94.70956 | 39876 ft | 567 kts | 49° |
| 2026-05-05 13:10 | 35.99170 | -94.62718 | 39987 ft | 567 kts | 49° |
| 2026-05-05 13:11 | 36.03350 | -94.54474 | 40113 ft | 565 kts | 49° |
| 2026-05-05 13:11 | 36.05434 | -94.50352 | 40243 ft | 563 kts | 49° |
| 2026-05-05 13:11 | 36.07507 | -94.46247 | 40294 ft | 563 kts | 49° |
| 2026-05-05 13:12 | 36.11624 | -94.38093 | 40349 ft | 563 kts | 49° |
| 2026-05-05 13:12 | 36.15763 | -94.29873 | 40387 ft | 563 kts | 49° |
| 2026-05-05 13:13 | 36.19896 | -94.21644 | 40485 ft | 563 kts | 49° |
| 2026-05-05 13:13 | 36.23870 | -94.13270 | 40591 ft | 570 kts | 58° |
| 2026-05-05 13:14 | 36.26397 | -94.03838 | 40642 ft | 581 kts | 69° |
| 2026-05-05 13:14 | 36.28382 | -93.94114 | 40687 ft | 582 kts | 71° |
| 2026-05-05 13:15 | 36.30273 | -93.84316 | 40556 ft | 586 kts | 71° |
| 2026-05-05 13:15 | 36.32194 | -93.74471 | 40529 ft | 587 kts | 71° |
| 2026-05-05 13:16 | 36.34133 | -93.64640 | 40587 ft | 586 kts | 70° |
| 2026-05-05 13:16 | 36.36072 | -93.54810 | 40627 ft | 586 kts | 71° |
| 2026-05-05 13:17 | 36.37993 | -93.45038 | 40653 ft | 587 kts | 71° |
| 2026-05-05 13:17 | 36.39916 | -93.35189 | 40708 ft | 587 kts | 71° |
| 2026-05-05 13:18 | 36.41828 | -93.25346 | 40755 ft | 586 kts | 71° |
| 2026-05-05 13:18 | 36.43734 | -93.15491 | 40783 ft | 586 kts | 71° |
| 2026-05-05 13:19 | 36.45631 | -93.05636 | 40794 ft | 586 kts | 71° |
| 2026-05-05 13:19 | 36.47519 | -92.95781 | 40823 ft | 586 kts | 71° |
| 2026-05-05 13:20 | 36.49399 | -92.85921 | 40810 ft | 587 kts | 71° |
| 2026-05-05 13:20 | 36.51272 | -92.76046 | 40805 ft | 587 kts | 71° |
| 2026-05-05 13:21 | 36.53127 | -92.66223 | 40808 ft | 587 kts | 71° |
| 2026-05-05 13:21 | 36.54985 | -92.56333 | 40810 ft | 587 kts | 71° |
| 2026-05-05 13:22 | 36.56838 | -92.46421 | 40809 ft | 588 kts | 71° |
| 2026-05-05 13:22 | 36.58681 | -92.36520 | 40811 ft | 588 kts | 71° |
| 2026-05-05 13:23 | 36.60516 | -92.26607 | 40820 ft | 588 kts | 71° |
| 2026-05-05 13:23 | 36.62346 | -92.16677 | 40810 ft | 588 kts | 71° |
| 2026-05-05 13:24 | 36.64155 | -92.06806 | 40813 ft | 589 kts | 71° |
| 2026-05-05 13:24 | 36.65967 | -91.96872 | 40818 ft | 589 kts | 71° |
| 2026-05-05 13:25 | 36.67777 | -91.86901 | 40801 ft | 589 kts | 71° |
| 2026-05-05 13:25 | 36.69574 | -91.76946 | 40798 ft | 589 kts | 71° |
| 2026-05-05 13:26 | 36.71366 | -91.66972 | 40807 ft | 589 kts | 71° |
| 2026-05-05 13:26 | 36.73137 | -91.57064 | 40807 ft | 589 kts | 71° |
| 2026-05-05 13:27 | 36.74923 | -91.47023 | 40820 ft | 590 kts | 72° |
| 2026-05-05 13:27 | 36.76676 | -91.37114 | 40822 ft | 590 kts | 72° |
| 2026-05-05 13:28 | 36.78437 | -91.27108 | 40823 ft | 590 kts | 72° |
| 2026-05-05 13:28 | 36.80188 | -91.17104 | 40829 ft | 590 kts | 72° |
| 2026-05-05 13:29 | 36.81932 | -91.07097 | 40830 ft | 590 kts | 71° |
| 2026-05-05 13:29 | 36.83666 | -90.97086 | 40827 ft | 590 kts | 71° |
| 2026-05-05 13:30 | 36.85391 | -90.87072 | 40830 ft | 590 kts | 72° |
| 2026-05-05 13:30 | 36.87097 | -90.77119 | 40829 ft | 590 kts | 72° |
| 2026-05-05 13:31 | 36.88806 | -90.67100 | 40836 ft | 590 kts | 71° |
| 2026-05-05 13:31 | 36.90505 | -90.57075 | 40851 ft | 589 kts | 71° |
| 2026-05-05 13:32 | 36.92196 | -90.47049 | 40841 ft | 589 kts | 71° |
| 2026-05-05 13:32 | 36.93878 | -90.37024 | 40881 ft | 589 kts | 71° |
| 2026-05-05 13:33 | 36.95553 | -90.26988 | 40841 ft | 589 kts | 71° |
| 2026-05-05 13:33 | 36.97215 | -90.16966 | 40841 ft | 588 kts | 71° |
| 2026-05-05 13:34 | 36.98859 | -90.07001 | 40839 ft | 588 kts | 71° |
| 2026-05-05 13:34 | 37.01213 | -89.97370 | 40897 ft | 570 kts | 55° |
| 2026-05-05 13:35 | 37.04634 | -89.88454 | 40855 ft | 566 kts | 53° |
| 2026-05-05 13:35 | 37.08222 | -89.79701 | 40863 ft | 565 kts | 52° |
| 2026-05-05 13:36 | 37.11826 | -89.70943 | 40865 ft | 565 kts | 52° |
| 2026-05-05 13:36 | 37.15403 | -89.62152 | 40870 ft | 566 kts | 53° |
| 2026-05-05 13:37 | 37.18937 | -89.53398 | 40867 ft | 566 kts | 53° |
| 2026-05-05 13:37 | 37.22487 | -89.44570 | 40869 ft | 566 kts | 53° |
| 2026-05-05 13:38 | 37.26034 | -89.35733 | 40865 ft | 567 kts | 53° |
| 2026-05-05 13:38 | 37.29576 | -89.26880 | 40855 ft | 567 kts | 53° |
| 2026-05-05 13:39 | 37.33113 | -89.18018 | 40859 ft | 569 kts | 53° |
| 2026-05-05 13:39 | 37.36656 | -89.09114 | 40858 ft | 569 kts | 53° |
| 2026-05-05 13:40 | 37.40188 | -89.00212 | 40864 ft | 569 kts | 53° |
| 2026-05-05 13:40 | 37.43714 | -88.91300 | 40867 ft | 569 kts | 53° |
| 2026-05-05 13:41 | 37.47235 | -88.82378 | 40899 ft | 569 kts | 53° |
| 2026-05-05 13:41 | 37.50749 | -88.73451 | 40874 ft | 568 kts | 53° |
| 2026-05-05 13:42 | 37.54230 | -88.64572 | 40871 ft | 568 kts | 53° |
| 2026-05-05 13:42 | 37.57722 | -88.55644 | 40876 ft | 567 kts | 53° |
| 2026-05-05 13:43 | 37.61206 | -88.46716 | 40904 ft | 567 kts | 53° |
| 2026-05-05 13:43 | 37.64683 | -88.37781 | 40878 ft | 566 kts | 53° |
| 2026-05-05 13:44 | 37.68144 | -88.28855 | 40865 ft | 566 kts | 53° |
| 2026-05-05 13:44 | 37.71865 | -88.20208 | 40873 ft | 556 kts | 47° |
| 2026-05-05 13:45 | 37.75908 | -88.11978 | 40877 ft | 554 kts | 47° |
| 2026-05-05 13:45 | 37.79961 | -88.03676 | 40873 ft | 555 kts | 47° |
| 2026-05-05 13:46 | 37.83940 | -87.95298 | 40876 ft | 555 kts | 48° |
| 2026-05-05 13:46 | 37.87875 | -87.86898 | 40877 ft | 554 kts | 48° |
| 2026-05-05 13:47 | 37.91806 | -87.78513 | 40872 ft | 551 kts | 46° |
| 2026-05-05 13:47 | 37.94022 | -87.74643 | 40891 ft | 538 kts | 39° |
| 2026-05-05 13:47 | 37.96373 | -87.70958 | 40882 ft | 536 kts | 38° |
| 2026-05-05 13:48 | 38.01171 | -87.63733 | 40867 ft | 534 kts | 37° |
| 2026-05-05 13:48 | 38.05993 | -87.56574 | 40869 ft | 533 kts | 37° |
| 2026-05-05 13:49 | 38.10776 | -87.49441 | 40871 ft | 533 kts | 37° |
| 2026-05-05 13:49 | 38.15570 | -87.42249 | 40871 ft | 533 kts | 37° |
| 2026-05-05 13:50 | 38.20360 | -87.35039 | 40870 ft | 534 kts | 38° |
| 2026-05-05 13:50 | 38.25146 | -87.27818 | 40868 ft | 534 kts | 38° |
| 2026-05-05 13:51 | 38.29123 | -87.21802 | 40870 ft | 534 kts | 38° |
| 2026-05-05 13:51 | 38.33903 | -87.14558 | 40880 ft | 534 kts | 38° |
| 2026-05-05 13:52 | 38.38680 | -87.07304 | 40884 ft | 534 kts | 38° |
| 2026-05-05 13:52 | 38.43453 | -87.00040 | 40882 ft | 534 kts | 38° |
| 2026-05-05 13:53 | 38.48218 | -86.92771 | 40885 ft | 534 kts | 38° |
| 2026-05-05 13:53 | 38.52974 | -86.85499 | 40862 ft | 532 kts | 38° |
| 2026-05-05 13:54 | 38.57711 | -86.78239 | 40882 ft | 531 kts | 38° |
| 2026-05-05 13:54 | 38.62411 | -86.71022 | 40877 ft | 531 kts | 38° |
| 2026-05-05 13:55 | 38.67136 | -86.63753 | 40873 ft | 531 kts | 38° |
| 2026-05-05 13:55 | 38.71868 | -86.56454 | 40890 ft | 532 kts | 38° |
| 2026-05-05 13:56 | 38.76586 | -86.49156 | 40869 ft | 532 kts | 38° |
| 2026-05-05 13:56 | 38.81297 | -86.41852 | 40868 ft | 531 kts | 38° |
| 2026-05-05 13:57 | 38.86002 | -86.34546 | 40876 ft | 532 kts | 38° |
| 2026-05-05 13:57 | 38.90681 | -86.27262 | 40869 ft | 532 kts | 39° |
| 2026-05-05 13:58 | 38.95390 | -86.19915 | 40863 ft | 533 kts | 39° |
| 2026-05-05 13:58 | 39.00097 | -86.12553 | 40865 ft | 533 kts | 39° |
| 2026-05-05 13:59 | 39.07150 | -86.01489 | 40880 ft | 534 kts | 39° |
| 2026-05-05 14:00 | 39.14208 | -85.90380 | 40869 ft | 534 kts | 39° |
| 2026-05-05 14:00 | 39.18911 | -85.82955 | 40868 ft | 535 kts | 39° |
| 2026-05-05 14:01 | 39.23615 | -85.75511 | 40868 ft | 536 kts | 39° |
| 2026-05-05 14:01 | 39.28324 | -85.68041 | 40879 ft | 536 kts | 40° |
| 2026-05-05 14:02 | 39.33003 | -85.60604 | 40866 ft | 537 kts | 40° |
| 2026-05-05 14:02 | 39.37741 | -85.53052 | 40861 ft | 538 kts | 40° |
| 2026-05-05 14:03 | 39.42424 | -85.45571 | 40857 ft | 538 kts | 40° |
| 2026-05-05 14:03 | 39.47131 | -85.38032 | 40860 ft | 538 kts | 40° |
| 2026-05-05 14:04 | 39.51827 | -85.30494 | 40862 ft | 537 kts | 41° |
| 2026-05-05 14:04 | 39.56516 | -85.22950 | 40861 ft | 537 kts | 41° |
| 2026-05-05 14:05 | 39.61163 | -85.15456 | 40874 ft | 536 kts | 41° |
| 2026-05-05 14:05 | 39.65839 | -85.07897 | 40876 ft | 536 kts | 41° |
| 2026-05-05 14:06 | 39.70504 | -85.00336 | 40902 ft | 536 kts | 41° |
| 2026-05-05 14:06 | 39.75159 | -84.92774 | 40888 ft | 535 kts | 41° |
| 2026-05-05 14:07 | 39.79804 | -84.85212 | 40890 ft | 535 kts | 41° |
| 2026-05-05 14:07 | 39.84443 | -84.77640 | 40884 ft | 535 kts | 41° |
| 2026-05-05 14:08 | 39.89083 | -84.70048 | 40874 ft | 535 kts | 41° |
| 2026-05-05 14:08 | 39.93682 | -84.62507 | 40858 ft | 535 kts | 42° |
| 2026-05-05 14:09 | 39.98306 | -84.54905 | 40848 ft | 535 kts | 42° |
| 2026-05-05 14:09 | 40.02926 | -84.47289 | 40834 ft | 535 kts | 42° |
| 2026-05-05 14:10 | 40.07537 | -84.39672 | 40834 ft | 535 kts | 42° |
| 2026-05-05 14:10 | 40.12146 | -84.32039 | 40860 ft | 535 kts | 42° |
| 2026-05-05 14:11 | 40.16763 | -84.24376 | 40832 ft | 535 kts | 43° |
| 2026-05-05 14:11 | 40.21331 | -84.16771 | 40834 ft | 535 kts | 43° |
| 2026-05-05 14:12 | 40.26172 | -84.09484 | 40840 ft | 519 kts | 31° |
| 2026-05-05 14:12 | 40.28985 | -84.06650 | 40840 ft | 504 kts | 21° |
| 2026-05-05 14:12 | 40.32023 | -84.04518 | 40847 ft | 487 kts | 12° |
| 2026-05-05 14:13 | 40.35186 | -84.03123 | 40847 ft | 473 kts | 2° |
| 2026-05-05 14:13 | 40.38385 | -84.02262 | 40844 ft | 468 kts | 360° |
| 2026-05-05 14:13 | 40.44793 | -84.00903 | 40842 ft | 466 kts | 358° |
| 2026-05-05 14:14 | 40.51204 | -83.99656 | 40837 ft | 466 kts | 358° |
| 2026-05-05 14:14 | 40.57623 | -83.98372 | 40821 ft | 467 kts | 358° |
| 2026-05-05 14:15 | 40.64049 | -83.97051 | 40822 ft | 468 kts | 358° |
| 2026-05-05 14:15 | 40.70448 | -83.95721 | 40822 ft | 468 kts | 359° |
| 2026-05-05 14:16 | 40.76885 | -83.94381 | 40832 ft | 469 kts | 359° |
| 2026-05-05 14:16 | 40.83349 | -83.93036 | 40815 ft | 470 kts | 359° |
| 2026-05-05 14:17 | 40.89811 | -83.91689 | 40818 ft | 470 kts | 359° |
| 2026-05-05 14:17 | 40.96282 | -83.90342 | 40822 ft | 471 kts | 359° |
| 2026-05-05 14:18 | 41.02770 | -83.88985 | 40824 ft | 473 kts | 0° |
| 2026-05-05 14:18 | 41.09269 | -83.87616 | 40822 ft | 473 kts | 0° |
| 2026-05-05 14:19 | 41.15744 | -83.86252 | 40815 ft | 474 kts | 0° |
| 2026-05-05 14:19 | 41.22269 | -83.84877 | 40810 ft | 475 kts | 0° |
| 2026-05-05 14:20 | 41.28815 | -83.83495 | 40796 ft | 476 kts | 0° |
| 2026-05-05 14:20 | 41.35372 | -83.82108 | 40787 ft | 477 kts | 0° |
| 2026-05-05 14:21 | 41.41935 | -83.80717 | 40799 ft | 478 kts | 1° |
| 2026-05-05 14:21 | 41.48529 | -83.79317 | 40776 ft | 480 kts | 1° |
| 2026-05-05 14:22 | 41.55085 | -83.77921 | 40775 ft | 480 kts | 1° |
| 2026-05-05 14:22 | 41.61734 | -83.76503 | 40800 ft | 481 kts | 1° |
| 2026-05-05 14:23 | 41.68363 | -83.75087 | 40795 ft | 483 kts | 1° |
| 2026-05-05 14:23 | 41.74958 | -83.73674 | 40794 ft | 484 kts | 1° |
| 2026-05-05 14:24 | 41.81613 | -83.72245 | 40828 ft | 485 kts | 1° |
| 2026-05-05 14:24 | 41.88290 | -83.70810 | 40795 ft | 486 kts | 1° |
| 2026-05-05 14:25 | 41.94982 | -83.69367 | 40789 ft | 487 kts | 1° |
| 2026-05-05 14:25 | 42.01680 | -83.67920 | 40781 ft | 488 kts | 1° |
| 2026-05-05 14:26 | 42.08398 | -83.66467 | 40769 ft | 490 kts | 1° |
| 2026-05-05 14:26 | 42.15129 | -83.65007 | 40763 ft | 491 kts | 2° |
| 2026-05-05 14:27 | 42.21883 | -83.63538 | 40785 ft | 491 kts | 2° |
| 2026-05-05 14:27 | 42.28660 | -83.62062 | 40783 ft | 493 kts | 2° |
| 2026-05-05 14:28 | 42.35398 | -83.60571 | 40778 ft | 496 kts | 4° |
| 2026-05-05 14:28 | 42.42016 | -83.57484 | 40776 ft | 514 kts | 22° |
| 2026-05-05 14:29 | 42.47985 | -83.51924 | 40767 ft | 525 kts | 32° |
| 2026-05-05 14:29 | 42.53722 | -83.45748 | 40759 ft | 527 kts | 34° |
| 2026-05-05 14:30 | 42.59433 | -83.39477 | 40796 ft | 528 kts | 33° |
| 2026-05-05 14:30 | 42.65162 | -83.33229 | 40779 ft | 529 kts | 33° |
| 2026-05-05 14:31 | 42.70913 | -83.26985 | 40782 ft | 529 kts | 33° |
| 2026-05-05 14:31 | 42.76675 | -83.20725 | 40776 ft | 530 kts | 33° |
| 2026-05-05 14:32 | 42.82440 | -83.14447 | 40784 ft | 531 kts | 34° |
| 2026-05-05 14:32 | 42.88213 | -83.08142 | 40752 ft | 532 kts | 34° |
| 2026-05-05 14:33 | 42.93990 | -83.01816 | 40763 ft | 533 kts | 34° |
| 2026-05-05 14:33 | 42.99770 | -82.95469 | 40766 ft | 533 kts | 34° |
| 2026-05-05 14:34 | 43.05522 | -82.89139 | 40767 ft | 535 kts | 34° |
| 2026-05-05 14:34 | 43.11325 | -82.82738 | 40767 ft | 536 kts | 34° |
| 2026-05-05 14:35 | 43.17129 | -82.76319 | 40767 ft | 536 kts | 34° |
| 2026-05-05 14:35 | 43.22933 | -82.69882 | 40775 ft | 537 kts | 34° |
| 2026-05-05 14:36 | 43.28745 | -82.63420 | 40768 ft | 537 kts | 34° |
| 2026-05-05 14:36 | 43.34551 | -82.56949 | 40768 ft | 537 kts | 34° |
| 2026-05-05 14:37 | 43.40320 | -82.50503 | 40788 ft | 538 kts | 34° |
| 2026-05-05 14:37 | 43.46128 | -82.43999 | 40774 ft | 538 kts | 35° |
| 2026-05-05 14:38 | 43.51933 | -82.37479 | 40776 ft | 538 kts | 35° |
| 2026-05-05 14:38 | 43.56787 | -82.32015 | 40782 ft | 538 kts | 35° |
| 2026-05-05 14:39 | 43.62592 | -82.25466 | 40785 ft | 539 kts | 35° |
| 2026-05-05 14:39 | 43.68424 | -82.19065 | 40785 ft | 536 kts | 29° |
| 2026-05-05 14:40 | 43.75038 | -82.14759 | 40783 ft | 519 kts | 8° |
| 2026-05-05 14:40 | 43.82093 | -82.13264 | 40782 ft | 510 kts | 359° |
| 2026-05-05 14:41 | 43.89163 | -82.12475 | 40782 ft | 509 kts | 358° |
| 2026-05-05 14:41 | 43.96231 | -82.11777 | 40812 ft | 510 kts | 358° |
| 2026-05-05 14:42 | 44.03321 | -82.11035 | 40776 ft | 511 kts | 358° |
| 2026-05-05 14:42 | 44.10422 | -82.10255 | 40783 ft | 512 kts | 358° |
| 2026-05-05 14:43 | 44.17533 | -82.09463 | 40799 ft | 513 kts | 358° |
| 2026-05-05 14:43 | 44.24665 | -82.08667 | 40784 ft | 514 kts | 358° |
| 2026-05-05 14:44 | 44.31809 | -82.07870 | 40789 ft | 515 kts | 358° |
| 2026-05-05 14:44 | 44.38959 | -82.07070 | 40785 ft | 516 kts | 358° |
| 2026-05-05 14:45 | 44.46078 | -82.06273 | 40783 ft | 516 kts | 358° |
| 2026-05-05 14:45 | 44.53236 | -82.05468 | 40782 ft | 516 kts | 358° |
| 2026-05-05 14:46 | 44.60410 | -82.04660 | 40781 ft | 516 kts | 358° |
| 2026-05-05 14:46 | 44.67573 | -82.03852 | 40784 ft | 516 kts | 358° |
| 2026-05-05 14:47 | 44.74730 | -82.03042 | 40778 ft | 517 kts | 358° |
| 2026-05-05 14:47 | 44.81908 | -82.02228 | 40775 ft | 517 kts | 358° |
| 2026-05-05 14:48 | 44.89038 | -82.01417 | 40776 ft | 516 kts | 358° |
| 2026-05-05 14:48 | 44.96199 | -82.00601 | 40782 ft | 517 kts | 358° |
| 2026-05-05 14:49 | 45.03378 | -81.99780 | 40774 ft | 517 kts | 358° |
| 2026-05-05 14:49 | 45.10553 | -81.98958 | 40791 ft | 517 kts | 358° |
| 2026-05-05 14:50 | 45.17737 | -81.98133 | 40768 ft | 518 kts | 359° |
| 2026-05-05 14:50 | 45.24923 | -81.97305 | 40760 ft | 518 kts | 359° |
| 2026-05-05 14:51 | 45.32117 | -81.96475 | 40768 ft | 518 kts | 359° |
| 2026-05-05 14:51 | 45.39308 | -81.95643 | 40747 ft | 519 kts | 359° |
| 2026-05-05 14:52 | 45.46506 | -81.94807 | 40741 ft | 518 kts | 359° |
| 2026-05-05 14:52 | 45.53701 | -81.93970 | 40734 ft | 519 kts | 359° |
| 2026-05-05 14:53 | 45.60850 | -81.93136 | 40727 ft | 519 kts | 359° |
| 2026-05-05 14:53 | 45.68061 | -81.92293 | 40719 ft | 519 kts | 359° |
| 2026-05-05 14:54 | 45.75278 | -81.91448 | 40708 ft | 520 kts | 359° |
| 2026-05-05 14:54 | 45.82496 | -81.90286 | 40706 ft | 522 kts | 2° |
| 2026-05-05 14:55 | 45.89710 | -81.88897 | 40712 ft | 523 kts | 2° |
| 2026-05-05 14:55 | 45.96921 | -81.87539 | 40688 ft | 523 kts | 2° |
| 2026-05-05 14:56 | 46.04094 | -81.86235 | 40684 ft | 522 kts | 1° |
| 2026-05-05 14:56 | 46.11323 | -81.84938 | 40685 ft | 523 kts | 2° |
| 2026-05-05 14:57 | 46.18549 | -81.83639 | 40675 ft | 523 kts | 2° |
| 2026-05-05 14:57 | 46.25769 | -81.82334 | 40666 ft | 523 kts | 2° |
| 2026-05-05 14:58 | 46.32951 | -81.81033 | 40661 ft | 523 kts | 2° |
| 2026-05-05 14:58 | 46.40180 | -81.79719 | 40655 ft | 523 kts | 2° |
| 2026-05-05 14:59 | 46.47408 | -81.78402 | 40647 ft | 523 kts | 2° |
| 2026-05-05 14:59 | 46.54637 | -81.77080 | 40644 ft | 523 kts | 2° |
| 2026-05-05 15:00 | 46.60638 | -81.75981 | 40648 ft | 523 kts | 2° |
| 2026-05-05 15:00 | 46.69093 | -81.74429 | 40656 ft | 524 kts | 2° |
| 2026-05-05 15:01 | 46.76324 | -81.73097 | 40636 ft | 524 kts | 2° |
| 2026-05-05 15:01 | 46.83570 | -81.71759 | 40636 ft | 524 kts | 2° |
| 2026-05-05 15:02 | 46.90806 | -81.70419 | 40642 ft | 524 kts | 2° |
| 2026-05-05 15:02 | 46.98041 | -81.69075 | 40632 ft | 524 kts | 2° |
| 2026-05-05 15:03 | 47.05281 | -81.67726 | 40635 ft | 524 kts | 2° |
| 2026-05-05 15:03 | 47.12475 | -81.66383 | 40631 ft | 524 kts | 2° |
| 2026-05-05 15:04 | 47.19701 | -81.65030 | 40632 ft | 524 kts | 2° |
| 2026-05-05 15:04 | 47.26939 | -81.63671 | 40620 ft | 524 kts | 2° |
| 2026-05-05 15:05 | 47.37788 | -81.61628 | 40625 ft | 524 kts | 3° |
| 2026-05-05 15:06 | 47.45024 | -81.60259 | 40620 ft | 523 kts | 3° |
| 2026-05-05 15:06 | 47.52246 | -81.58890 | 40621 ft | 523 kts | 3° |
| 2026-05-05 15:07 | 47.59423 | -81.57525 | 40619 ft | 523 kts | 3° |
| 2026-05-05 15:07 | 47.66641 | -81.56149 | 40614 ft | 523 kts | 3° |
| 2026-05-05 15:08 | 47.73864 | -81.54769 | 40619 ft | 523 kts | 3° |
| 2026-05-05 15:08 | 47.81088 | -81.53384 | 40612 ft | 523 kts | 3° |
| 2026-05-05 15:09 | 47.88322 | -81.51993 | 40611 ft | 523 kts | 3° |
| 2026-05-05 15:09 | 47.95539 | -81.50503 | 40610 ft | 525 kts | 5° |
| 2026-05-05 15:10 | 48.02765 | -81.48740 | 40605 ft | 525 kts | 5° |
| 2026-05-05 15:10 | 48.09977 | -81.46961 | 40604 ft | 525 kts | 5° |
| 2026-05-05 15:11 | 48.17191 | -81.45221 | 40600 ft | 525 kts | 5° |
| 2026-05-05 15:11 | 48.24408 | -81.43498 | 40601 ft | 525 kts | 5° |
| 2026-05-05 15:12 | 48.31638 | -81.41769 | 40598 ft | 526 kts | 5° |
| 2026-05-05 15:12 | 48.38867 | -81.40036 | 40599 ft | 526 kts | 5° |
| 2026-05-05 15:13 | 48.45980 | -81.38319 | 40592 ft | 508 kts | 5° |
| 2026-05-05 15:13 | 48.49426 | -81.37479 | 40597 ft | 493 kts | 5° |
| 2026-05-05 15:13 | 48.52754 | -81.36667 | 40576 ft | 477 kts | 5° |
| 2026-05-05 15:13 | 48.55980 | -81.35881 | 40576 ft | 462 kts | 5° |
| 2026-05-05 15:14 | 48.59097 | -81.35122 | 40576 ft | 445 kts | 5° |
| 2026-05-05 15:14 | 48.62098 | -81.34391 | 40573 ft | 428 kts | 5° |
| 2026-05-05 15:14 | 48.64978 | -81.33689 | 40570 ft | 410 kts | 5° |
| 2026-05-05 15:14 | 48.67728 | -81.33017 | 40567 ft | 390 kts | 4° |
| 2026-05-05 15:15 | 48.70395 | -81.32370 | 40407 ft | 389 kts | 4° |
| 2026-05-05 15:15 | 48.73084 | -81.31736 | 40123 ft | 393 kts | 4° |
| 2026-05-05 15:15 | 48.75780 | -81.31122 | 40037 ft | 391 kts | 3° |
| 2026-05-05 15:15 | 48.78555 | -81.30483 | 39024 ft | 422 kts | 4° |
| 2026-05-05 15:16 | 48.81581 | -81.29769 | 37904 ft | 457 kts | 4° |
| 2026-05-05 15:16 | 48.84822 | -81.28984 | 36911 ft | 485 kts | 4° |
| 2026-05-05 15:16 | 48.88227 | -81.28142 | 36231 ft | 506 kts | 5° |
| 2026-05-05 15:16 | 48.91758 | -81.27259 | 35842 ft | 520 kts | 5° |
| 2026-05-05 15:17 | 48.95355 | -81.26355 | 35747 ft | 526 kts | 5° |
| 2026-05-05 15:17 | 49.02626 | -81.24530 | 35886 ft | 532 kts | 5° |
| 2026-05-05 15:18 | 49.09916 | -81.22715 | 36009 ft | 536 kts | 5° |
| 2026-05-05 15:18 | 49.17296 | -81.20884 | 36107 ft | 539 kts | 5° |
| 2026-05-05 15:19 | 49.24714 | -81.19040 | 36302 ft | 539 kts | 5° |
| 2026-05-05 15:19 | 49.32101 | -81.17197 | 36492 ft | 538 kts | 5° |
| 2026-05-05 15:20 | 49.39499 | -81.15347 | 36648 ft | 538 kts | 5° |
| 2026-05-05 15:20 | 49.43192 | -81.14422 | 36749 ft | 538 kts | 6° |
| 2026-05-05 15:20 | 49.46881 | -81.13496 | 36869 ft | 537 kts | 6° |
| 2026-05-05 15:21 | 49.54260 | -81.11640 | 36997 ft | 537 kts | 6° |
| 2026-05-05 15:21 | 49.61587 | -81.09792 | 37128 ft | 537 kts | 6° |
| 2026-05-05 15:22 | 49.68951 | -81.07927 | 37331 ft | 535 kts | 6° |
| 2026-05-05 15:22 | 49.76295 | -81.06063 | 37426 ft | 535 kts | 6° |
| 2026-05-05 15:23 | 49.83644 | -81.04192 | 37522 ft | 535 kts | 6° |
| 2026-05-05 15:23 | 49.90975 | -81.02319 | 37717 ft | 532 kts | 6° |
| 2026-05-05 15:24 | 49.98285 | -81.00423 | 37796 ft | 533 kts | 8° |
| 2026-05-05 15:24 | 50.05469 | -80.97408 | 37852 ft | 536 kts | 14° |
| 2026-05-05 15:25 | 50.12598 | -80.94024 | 37963 ft | 535 kts | 15° |
| 2026-05-05 15:25 | 50.18498 | -80.91160 | 38012 ft | 535 kts | 15° |
| 2026-05-05 15:26 | 50.25608 | -80.87706 | 38057 ft | 535 kts | 15° |
| 2026-05-05 15:26 | 50.33873 | -80.83699 | 38148 ft | 534 kts | 15° |
| 2026-05-05 15:27 | 50.39814 | -80.80813 | 38172 ft | 534 kts | 15° |
| 2026-05-05 15:27 | 50.46913 | -80.77355 | 38205 ft | 534 kts | 15° |
| 2026-05-05 15:28 | 50.54006 | -80.73889 | 38238 ft | 534 kts | 15° |
| 2026-05-05 15:28 | 50.61060 | -80.70432 | 38256 ft | 534 kts | 15° |
| 2026-05-05 15:29 | 50.68152 | -80.66946 | 38269 ft | 534 kts | 15° |
| 2026-05-05 15:29 | 50.75247 | -80.63446 | 38290 ft | 534 kts | 15° |
| 2026-05-05 15:30 | 50.82337 | -80.59933 | 38300 ft | 534 kts | 15° |
| 2026-05-05 15:30 | 50.89429 | -80.56409 | 38319 ft | 534 kts | 16° |
| 2026-05-05 15:31 | 50.96517 | -80.52880 | 38357 ft | 533 kts | 16° |
| 2026-05-05 15:31 | 51.03607 | -80.49340 | 38334 ft | 534 kts | 16° |
| 2026-05-05 15:32 | 51.10705 | -80.45782 | 38333 ft | 535 kts | 16° |
| 2026-05-05 15:32 | 51.17744 | -80.42240 | 38357 ft | 534 kts | 16° |
| 2026-05-05 15:33 | 51.24847 | -80.38657 | 38326 ft | 536 kts | 17° |
| 2026-05-05 15:33 | 51.31963 | -80.35055 | 38342 ft | 536 kts | 17° |
| 2026-05-05 15:34 | 51.39067 | -80.31445 | 38347 ft | 535 kts | 17° |
| 2026-05-05 15:34 | 51.46157 | -80.27834 | 38415 ft | 534 kts | 17° |
| 2026-05-05 15:35 | 51.53239 | -80.24215 | 38416 ft | 534 kts | 17° |
| 2026-05-05 15:35 | 51.60327 | -80.20580 | 38412 ft | 534 kts | 17° |
| 2026-05-05 15:36 | 51.67404 | -80.16939 | 38412 ft | 533 kts | 17° |
| 2026-05-05 15:36 | 51.74463 | -80.13295 | 38409 ft | 532 kts | 17° |
| 2026-05-05 15:37 | 51.81466 | -80.09668 | 38406 ft | 532 kts | 17° |
| 2026-05-05 15:37 | 51.88515 | -80.06006 | 38404 ft | 532 kts | 17° |
| 2026-05-05 15:38 | 51.95561 | -80.02332 | 38403 ft | 532 kts | 17° |
| 2026-05-05 15:38 | 52.02594 | -79.98611 | 38403 ft | 532 kts | 19° |
| 2026-05-05 15:39 | 52.09504 | -79.94309 | 38401 ft | 532 kts | 21° |
| 2026-05-05 15:39 | 52.16362 | -79.89816 | 38396 ft | 531 kts | 21° |
| 2026-05-05 15:40 | 52.23229 | -79.85387 | 38394 ft | 531 kts | 21° |
| 2026-05-05 15:40 | 52.30116 | -79.81002 | 38394 ft | 531 kts | 21° |
| 2026-05-05 15:41 | 52.36961 | -79.76650 | 38386 ft | 531 kts | 21° |
| 2026-05-05 15:41 | 52.43843 | -79.72260 | 38382 ft | 531 kts | 21° |
| 2026-05-05 15:42 | 52.50726 | -79.67851 | 38384 ft | 531 kts | 21° |
| 2026-05-05 15:42 | 52.57612 | -79.63424 | 38377 ft | 531 kts | 21° |
| 2026-05-05 15:43 | 52.64487 | -79.58986 | 38368 ft | 530 kts | 21° |
| 2026-05-05 15:43 | 52.71362 | -79.54535 | 38367 ft | 531 kts | 22° |
| 2026-05-05 15:44 | 52.78234 | -79.50072 | 38367 ft | 531 kts | 22° |
| 2026-05-05 15:44 | 52.85099 | -79.45598 | 38361 ft | 530 kts | 22° |
| 2026-05-05 15:45 | 52.91966 | -79.41107 | 38365 ft | 530 kts | 22° |
| 2026-05-05 15:45 | 52.98778 | -79.36637 | 38358 ft | 529 kts | 22° |
| 2026-05-05 15:46 | 53.05588 | -79.32152 | 38362 ft | 530 kts | 22° |
| 2026-05-05 15:46 | 53.12441 | -79.27624 | 38356 ft | 530 kts | 22° |
| 2026-05-05 15:47 | 53.19299 | -79.23077 | 38356 ft | 530 kts | 22° |
| 2026-05-05 15:47 | 53.26147 | -79.18521 | 38351 ft | 529 kts | 22° |
| 2026-05-05 15:48 | 53.32979 | -79.13960 | 38351 ft | 527 kts | 22° |
| 2026-05-05 15:48 | 53.39779 | -79.09405 | 38351 ft | 527 kts | 22° |
| 2026-05-05 15:49 | 53.46583 | -79.04830 | 38345 ft | 526 kts | 22° |
| 2026-05-05 15:49 | 53.53381 | -79.00246 | 38345 ft | 527 kts | 22° |
| 2026-05-05 15:50 | 53.60181 | -78.95643 | 38345 ft | 527 kts | 22° |
| 2026-05-05 15:50 | 53.66982 | -78.91022 | 38343 ft | 527 kts | 22° |
| 2026-05-05 15:51 | 53.73788 | -78.86382 | 38338 ft | 527 kts | 22° |
| 2026-05-05 15:51 | 53.80540 | -78.81762 | 38337 ft | 526 kts | 23° |
| 2026-05-05 15:52 | 53.87316 | -78.77111 | 38334 ft | 525 kts | 23° |
| 2026-05-05 15:52 | 53.94085 | -78.72450 | 38331 ft | 525 kts | 23° |
| 2026-05-05 15:53 | 54.00858 | -78.67770 | 38331 ft | 525 kts | 23° |
| 2026-05-05 15:53 | 54.07620 | -78.63078 | 38329 ft | 524 kts | 23° |
| 2026-05-05 15:54 | 54.14378 | -78.58373 | 38325 ft | 524 kts | 23° |
| 2026-05-05 15:54 | 54.21129 | -78.53657 | 38322 ft | 524 kts | 23° |
| 2026-05-05 15:55 | 54.27889 | -78.48918 | 38323 ft | 524 kts | 23° |
| 2026-05-05 15:55 | 54.34635 | -78.44171 | 38326 ft | 524 kts | 23° |
| 2026-05-05 15:56 | 54.41334 | -78.39440 | 38328 ft | 524 kts | 23° |
| 2026-05-05 15:56 | 54.48122 | -78.34631 | 38336 ft | 524 kts | 24° |
| 2026-05-05 15:57 | 54.54869 | -78.29832 | 38338 ft | 525 kts | 24° |
| 2026-05-05 15:57 | 54.61574 | -78.25047 | 38337 ft | 525 kts | 24° |
| 2026-05-05 15:58 | 54.68321 | -78.20214 | 38337 ft | 525 kts | 24° |
| 2026-05-05 15:58 | 54.75062 | -78.15368 | 38336 ft | 525 kts | 24° |
| 2026-05-05 15:59 | 54.81798 | -78.10509 | 38337 ft | 525 kts | 24° |
| 2026-05-05 15:59 | 54.88534 | -78.05631 | 38343 ft | 524 kts | 24° |
| 2026-05-05 16:00 | 54.95281 | -78.00727 | 38340 ft | 524 kts | 24° |
| 2026-05-05 16:00 | 55.01996 | -77.95830 | 38348 ft | 522 kts | 24° |
| 2026-05-05 16:01 | 55.08697 | -77.90925 | 38349 ft | 522 kts | 24° |
| 2026-05-05 16:01 | 55.15384 | -77.86012 | 38348 ft | 522 kts | 24° |
| 2026-05-05 16:02 | 55.22031 | -77.81111 | 38347 ft | 520 kts | 24° |
| 2026-05-05 16:02 | 55.28740 | -77.76410 | 38364 ft | 520 kts | 19° |
| 2026-05-05 16:03 | 55.35651 | -77.72608 | 38360 ft | 521 kts | 18° |
| 2026-05-05 16:03 | 55.42598 | -77.68942 | 38369 ft | 521 kts | 18° |
| 2026-05-05 16:04 | 55.49546 | -77.65295 | 38375 ft | 521 kts | 18° |
| 2026-05-05 16:04 | 55.56496 | -77.61624 | 38373 ft | 521 kts | 18° |
| 2026-05-05 16:05 | 55.63440 | -77.57931 | 38370 ft | 521 kts | 18° |
| 2026-05-05 16:05 | 55.70383 | -77.54224 | 38381 ft | 521 kts | 18° |
| 2026-05-05 16:06 | 55.77323 | -77.50504 | 38381 ft | 521 kts | 18° |
| 2026-05-05 16:06 | 55.84257 | -77.46772 | 38393 ft | 521 kts | 19° |
| 2026-05-05 16:07 | 55.91150 | -77.43049 | 38402 ft | 521 kts | 19° |
| 2026-05-05 16:07 | 55.98092 | -77.39287 | 38400 ft | 521 kts | 19° |
| 2026-05-05 16:08 | 56.05032 | -77.35510 | 38412 ft | 521 kts | 19° |
| 2026-05-05 16:08 | 56.11966 | -77.31723 | 38417 ft | 521 kts | 19° |
| 2026-05-05 16:09 | 56.18911 | -77.27916 | 38418 ft | 521 kts | 19° |
| 2026-05-05 16:09 | 56.25844 | -77.24101 | 38428 ft | 521 kts | 19° |
| 2026-05-05 16:10 | 56.32772 | -77.20274 | 38440 ft | 521 kts | 19° |
| 2026-05-05 16:10 | 56.39699 | -77.16434 | 38453 ft | 521 kts | 19° |
| 2026-05-05 16:11 | 56.46632 | -77.12574 | 38445 ft | 521 kts | 19° |
| 2026-05-05 16:12 | 56.60425 | -77.04854 | 38473 ft | 520 kts | 19° |
| 2026-05-05 16:13 | 56.77709 | -76.95094 | 38475 ft | 519 kts | 19° |
| 2026-05-05 16:13 | 56.83454 | -76.91830 | 38495 ft | 519 kts | 19° |
| 2026-05-05 16:14 | 56.97249 | -76.83948 | 38492 ft | 519 kts | 19° |
| 2026-05-05 16:15 | 57.11025 | -76.76015 | 38510 ft | 518 kts | 20° |
| 2026-05-05 16:16 | 57.24782 | -76.68032 | 38519 ft | 518 kts | 20° |
| 2026-05-05 16:17 | 57.35083 | -76.62012 | 38538 ft | 518 kts | 20° |
| 2026-05-05 16:18 | 57.45355 | -76.55972 | 38543 ft | 518 kts | 20° |
| 2026-05-05 16:19 | 57.55676 | -76.49869 | 38556 ft | 518 kts | 20° |
| 2026-05-05 16:19 | 57.65942 | -76.43764 | 38565 ft | 518 kts | 20° |
| 2026-05-05 16:20 | 57.79688 | -76.35531 | 38571 ft | 518 kts | 20° |
| 2026-05-05 16:22 | 57.96874 | -76.25144 | 38590 ft | 519 kts | 20° |
| 2026-05-05 16:23 | 58.10602 | -76.16771 | 38595 ft | 519 kts | 20° |
| 2026-05-05 16:23 | 58.20905 | -76.10443 | 38594 ft | 518 kts | 20° |
| 2026-05-05 16:24 | 58.27726 | -76.06232 | 38591 ft | 518 kts | 20° |
| 2026-05-05 16:25 | 58.38005 | -75.99857 | 38602 ft | 517 kts | 20° |
| 2026-05-05 16:25 | 58.48273 | -75.93444 | 38613 ft | 517 kts | 20° |
| 2026-05-05 16:26 | 58.61915 | -75.84866 | 38615 ft | 517 kts | 21° |
| 2026-05-05 16:27 | 58.68748 | -75.80542 | 38626 ft | 517 kts | 21° |
| 2026-05-05 16:27 | 58.75578 | -75.76204 | 38630 ft | 517 kts | 21° |
| 2026-05-05 16:28 | 58.82406 | -75.71847 | 38618 ft | 517 kts | 21° |
| 2026-05-05 16:28 | 58.89230 | -75.67476 | 38629 ft | 517 kts | 21° |
| 2026-05-05 16:29 | 58.96024 | -75.63105 | 38630 ft | 517 kts | 21° |
| 2026-05-05 16:29 | 59.02843 | -75.58700 | 38638 ft | 517 kts | 21° |
| 2026-05-05 16:30 | 59.09669 | -75.54272 | 38623 ft | 516 kts | 21° |
| 2026-05-05 16:30 | 59.16484 | -75.49833 | 38642 ft | 516 kts | 21° |
| 2026-05-05 16:31 | 59.23300 | -75.45374 | 38640 ft | 516 kts | 21° |
| 2026-05-05 16:31 | 59.30110 | -75.40901 | 38644 ft | 516 kts | 21° |
| 2026-05-05 16:32 | 59.36919 | -75.36409 | 38633 ft | 516 kts | 21° |
| 2026-05-05 16:32 | 59.43741 | -75.31889 | 38645 ft | 516 kts | 21° |
| 2026-05-05 16:33 | 59.50547 | -75.27361 | 38648 ft | 517 kts | 21° |
| 2026-05-05 16:33 | 59.57310 | -75.22842 | 38647 ft | 517 kts | 21° |
| 2026-05-05 16:34 | 59.64116 | -75.18275 | 38634 ft | 516 kts | 21° |
| 2026-05-05 16:34 | 59.70916 | -75.13693 | 38645 ft | 517 kts | 21° |
| 2026-05-05 16:35 | 59.77726 | -75.09083 | 38644 ft | 517 kts | 21° |
| 2026-05-05 16:35 | 59.84534 | -75.04456 | 38647 ft | 517 kts | 21° |
| 2026-05-05 16:36 | 59.91331 | -74.99816 | 38637 ft | 517 kts | 21° |
| 2026-05-05 16:36 | 59.98147 | -74.95141 | 38647 ft | 518 kts | 22° |
| 2026-05-05 16:37 | 60.04967 | -74.90444 | 38649 ft | 518 kts | 22° |
| 2026-05-05 16:37 | 60.11734 | -74.85765 | 38650 ft | 518 kts | 22° |
| 2026-05-05 16:38 | 60.18545 | -74.81034 | 38639 ft | 518 kts | 22° |
| 2026-05-05 16:38 | 60.25349 | -74.76285 | 38658 ft | 518 kts | 22° |
| 2026-05-05 16:39 | 60.32154 | -74.71516 | 38653 ft | 517 kts | 22° |
| 2026-05-05 16:39 | 60.38961 | -74.66724 | 38657 ft | 517 kts | 22° |
| 2026-05-05 16:40 | 60.45765 | -74.61915 | 38643 ft | 517 kts | 22° |
| 2026-05-05 16:40 | 60.52561 | -74.57088 | 38653 ft | 517 kts | 22° |
| 2026-05-05 16:41 | 60.59357 | -74.52240 | 38659 ft | 517 kts | 22° |
| 2026-05-05 16:41 | 60.66146 | -74.47374 | 38663 ft | 517 kts | 22° |
| 2026-05-05 16:42 | 60.72898 | -74.42514 | 38659 ft | 517 kts | 22° |
| 2026-05-05 16:42 | 60.79685 | -74.37607 | 38663 ft | 518 kts | 22° |
| 2026-05-05 16:43 | 60.86476 | -74.32675 | 38659 ft | 517 kts | 22° |
| 2026-05-05 16:43 | 60.93261 | -74.27725 | 38662 ft | 517 kts | 22° |
| 2026-05-05 16:44 | 61.00044 | -74.22754 | 38658 ft | 517 kts | 23° |
| 2026-05-05 16:44 | 61.06821 | -74.17765 | 38666 ft | 518 kts | 23° |
| 2026-05-05 16:45 | 61.13609 | -74.12744 | 38663 ft | 518 kts | 23° |
| 2026-05-05 16:45 | 61.20386 | -74.07709 | 38664 ft | 518 kts | 23° |
| 2026-05-05 16:46 | 61.27173 | -74.02644 | 38669 ft | 518 kts | 23° |
| 2026-05-05 16:46 | 61.33911 | -73.97591 | 38669 ft | 518 kts | 23° |
| 2026-05-05 16:47 | 61.40696 | -73.92480 | 38675 ft | 519 kts | 23° |
| 2026-05-05 16:47 | 61.47484 | -73.87343 | 38680 ft | 519 kts | 23° |
| 2026-05-05 16:48 | 61.54277 | -73.82178 | 38680 ft | 519 kts | 23° |
| 2026-05-05 16:48 | 61.61064 | -73.76994 | 38690 ft | 519 kts | 23° |
| 2026-05-05 16:49 | 61.67847 | -73.71789 | 38707 ft | 519 kts | 23° |
| 2026-05-05 16:49 | 61.74221 | -73.65009 | 38705 ft | 510 kts | 39° |
| 2026-05-05 16:50 | 61.79948 | -73.56306 | 38710 ft | 509 kts | 40° |
| 2026-05-05 16:50 | 61.85588 | -73.47246 | 38695 ft | 509 kts | 41° |
| 2026-05-05 16:51 | 61.91211 | -73.38113 | 38716 ft | 510 kts | 41° |
| 2026-05-05 16:51 | 61.96845 | -73.28961 | 38716 ft | 510 kts | 41° |
| 2026-05-05 16:52 | 62.02481 | -73.19792 | 38721 ft | 508 kts | 41° |
| 2026-05-05 16:52 | 62.08079 | -73.10652 | 38725 ft | 506 kts | 41° |
| 2026-05-05 16:53 | 62.13660 | -73.01489 | 38723 ft | 506 kts | 41° |
| 2026-05-05 16:53 | 62.19208 | -72.92333 | 38721 ft | 507 kts | 41° |
| 2026-05-05 16:54 | 62.24793 | -72.83076 | 38734 ft | 507 kts | 41° |
| 2026-05-05 16:54 | 62.30368 | -72.73791 | 38732 ft | 507 kts | 41° |
| 2026-05-05 16:55 | 62.35938 | -72.64469 | 38702 ft | 507 kts | 41° |
| 2026-05-05 16:55 | 62.41518 | -72.55083 | 38724 ft | 509 kts | 41° |
| 2026-05-05 16:56 | 62.47088 | -72.45674 | 38731 ft | 503 kts | 42° |
| 2026-05-05 16:56 | 62.52584 | -72.36339 | 38713 ft | 508 kts | 42° |
| 2026-05-05 16:57 | 62.58154 | -72.26829 | 38711 ft | 510 kts | 42° |
| 2026-05-05 16:57 | 62.63733 | -72.17262 | 38708 ft | 512 kts | 42° |
| 2026-05-05 16:58 | 62.69325 | -72.07626 | 38716 ft | 513 kts | 42° |
| 2026-05-05 16:58 | 62.74918 | -71.97942 | 38719 ft | 514 kts | 42° |
| 2026-05-05 16:59 | 62.80512 | -71.88205 | 38719 ft | 514 kts | 42° |
| 2026-05-05 16:59 | 62.86092 | -71.78447 | 38715 ft | 513 kts | 43° |
| 2026-05-05 17:00 | 62.91650 | -71.68675 | 38722 ft | 512 kts | 43° |
| 2026-05-05 17:00 | 62.97205 | -71.58857 | 38730 ft | 512 kts | 43° |
| 2026-05-05 17:01 | 63.02755 | -71.49002 | 38733 ft | 512 kts | 43° |
| 2026-05-05 17:01 | 63.08298 | -71.39109 | 38730 ft | 512 kts | 43° |
| 2026-05-05 17:02 | 63.13833 | -71.29179 | 38724 ft | 513 kts | 43° |
| 2026-05-05 17:02 | 63.19338 | -71.19251 | 38740 ft | 514 kts | 43° |
| 2026-05-05 17:03 | 63.24885 | -71.09198 | 38743 ft | 515 kts | 43° |
| 2026-05-05 17:03 | 63.30434 | -70.99093 | 38744 ft | 516 kts | 43° |
| 2026-05-05 17:04 | 63.35044 | -70.90657 | 38754 ft | 516 kts | 43° |
| 2026-05-05 17:04 | 63.40582 | -70.80474 | 38753 ft | 516 kts | 43° |
| 2026-05-05 17:05 | 63.46109 | -70.70259 | 38759 ft | 516 kts | 43° |
| 2026-05-05 17:05 | 63.51634 | -70.59996 | 38760 ft | 516 kts | 44° |
| 2026-05-05 17:06 | 63.57149 | -70.49695 | 38763 ft | 515 kts | 44° |
| 2026-05-05 17:06 | 63.62656 | -70.39356 | 38764 ft | 515 kts | 44° |
| 2026-05-05 17:07 | 63.68151 | -70.28984 | 38765 ft | 515 kts | 44° |
| 2026-05-05 17:07 | 63.73636 | -70.18576 | 38777 ft | 515 kts | 43° |
| 2026-05-05 17:08 | 63.79043 | -70.08081 | 38789 ft | 513 kts | 48° |
| 2026-05-05 17:08 | 63.83318 | -69.95401 | 38805 ft | 502 kts | 66° |
| 2026-05-05 17:09 | 63.85738 | -69.80714 | 38818 ft | 495 kts | 77° |
| 2026-05-05 17:09 | 63.87574 | -69.65663 | 38818 ft | 495 kts | 79° |
| 2026-05-05 17:10 | 63.89320 | -69.50513 | 38835 ft | 496 kts | 79° |
| 2026-05-05 17:10 | 63.91076 | -69.35321 | 38854 ft | 497 kts | 79° |
| 2026-05-05 17:11 | 63.92826 | -69.20231 | 38847 ft | 497 kts | 79° |
| 2026-05-05 17:11 | 63.94578 | -69.05033 | 38854 ft | 497 kts | 79° |
| 2026-05-05 17:12 | 63.96311 | -68.89831 | 38845 ft | 496 kts | 79° |
| 2026-05-05 17:12 | 63.98030 | -68.74583 | 38842 ft | 496 kts | 79° |
| 2026-05-05 17:13 | 63.99731 | -68.59338 | 38858 ft | 496 kts | 79° |
| 2026-05-05 17:13 | 64.01414 | -68.44078 | 38838 ft | 496 kts | 80° |
| 2026-05-05 17:14 | 64.03086 | -68.28783 | 38853 ft | 497 kts | 81° |
| 2026-05-05 17:14 | 64.04721 | -68.13643 | 38862 ft | 492 kts | 82° |
| 2026-05-05 17:15 | 64.06338 | -67.98482 | 38862 ft | 490 kts | 82° |
| 2026-05-05 17:15 | 64.07935 | -67.83354 | 38882 ft | 490 kts | 81° |
| 2026-05-05 17:16 | 64.09520 | -67.68235 | 38892 ft | 488 kts | 82° |
| 2026-05-05 17:16 | 64.11083 | -67.53115 | 38897 ft | 488 kts | 81° |
| 2026-05-05 17:17 | 64.12628 | -67.37993 | 38925 ft | 488 kts | 82° |
| 2026-05-05 17:17 | 64.14153 | -67.22912 | 38930 ft | 483 kts | 81° |
| 2026-05-05 17:18 | 64.15648 | -67.07935 | 38933 ft | 483 kts | 82° |
| 2026-05-05 17:18 | 64.17125 | -66.92958 | 38948 ft | 484 kts | 82° |
| 2026-05-05 17:19 | 64.18597 | -66.77877 | 38956 ft | 485 kts | 82° |
| 2026-05-05 17:19 | 64.20059 | -66.62732 | 38964 ft | 485 kts | 82° |
| 2026-05-05 17:20 | 64.21505 | -66.47591 | 38949 ft | 485 kts | 82° |
| 2026-05-05 17:20 | 64.22932 | -66.32452 | 38974 ft | 485 kts | 82° |
| 2026-05-05 17:21 | 64.24345 | -66.17264 | 38993 ft | 485 kts | 82° |
| 2026-05-05 17:22 | 64.26434 | -65.94475 | 38992 ft | 485 kts | 82° |
| 2026-05-05 17:22 | 64.27808 | -65.79259 | 39039 ft | 486 kts | 83° |
| 2026-05-05 17:23 | 64.29159 | -65.64105 | 39038 ft | 487 kts | 83° |
| 2026-05-05 17:23 | 64.30505 | -65.48830 | 39037 ft | 486 kts | 83° |
| 2026-05-05 17:24 | 64.31833 | -65.33551 | 39035 ft | 486 kts | 83° |
| 2026-05-05 17:24 | 64.33144 | -65.18257 | 39041 ft | 486 kts | 83° |
| 2026-05-05 17:25 | 64.34443 | -65.02925 | 39039 ft | 487 kts | 83° |
| 2026-05-05 17:25 | 64.35726 | -64.87572 | 39023 ft | 487 kts | 83° |
| 2026-05-05 17:26 | 64.36984 | -64.72318 | 39024 ft | 487 kts | 83° |
| 2026-05-05 17:26 | 64.38234 | -64.56946 | 38991 ft | 486 kts | 85° |
| 2026-05-05 17:27 | 64.39466 | -64.41580 | 38995 ft | 486 kts | 84° |
| 2026-05-05 17:27 | 64.40684 | -64.26178 | 38981 ft | 486 kts | 85° |
| 2026-05-05 17:28 | 64.41884 | -64.10774 | 38968 ft | 486 kts | 84° |
| 2026-05-05 17:28 | 64.43069 | -63.95357 | 38968 ft | 486 kts | 85° |
| 2026-05-05 17:29 | 64.44237 | -63.79931 | 38976 ft | 487 kts | 84° |
| 2026-05-05 17:29 | 64.45389 | -63.64478 | 38977 ft | 487 kts | 85° |
| 2026-05-05 17:30 | 64.46528 | -63.49020 | 38975 ft | 486 kts | 86° |
| 2026-05-05 17:30 | 64.47638 | -63.33651 | 38981 ft | 487 kts | 85° |
| 2026-05-05 17:31 | 64.48743 | -63.18138 | 38990 ft | 489 kts | 85° |
| 2026-05-05 17:31 | 64.49965 | -63.02571 | 38986 ft | 494 kts | 80° |
| 2026-05-05 17:32 | 64.52377 | -62.87485 | 38983 ft | 500 kts | 71° |
| 2026-05-05 17:32 | 64.55145 | -62.72729 | 38999 ft | 501 kts | 69° |
| 2026-05-05 17:33 | 64.57979 | -62.57888 | 38997 ft | 502 kts | 70° |
| 2026-05-05 17:33 | 64.60782 | -62.43010 | 39008 ft | 501 kts | 71° |
| 2026-05-05 17:34 | 64.63550 | -62.28113 | 38999 ft | 499 kts | 71° |
| 2026-05-05 17:34 | 64.66294 | -62.13230 | 39024 ft | 499 kts | 71° |
| 2026-05-05 17:35 | 64.69024 | -61.98295 | 39022 ft | 499 kts | 70° |
| 2026-05-05 17:35 | 64.71731 | -61.83360 | 39020 ft | 499 kts | 71° |
| 2026-05-05 17:36 | 64.74406 | -61.68505 | 39035 ft | 499 kts | 71° |
| 2026-05-05 17:36 | 64.77083 | -61.53508 | 39031 ft | 499 kts | 70° |
| 2026-05-05 17:37 | 64.79751 | -61.38472 | 39040 ft | 499 kts | 72° |
| 2026-05-05 17:37 | 64.82406 | -61.23387 | 39049 ft | 500 kts | 71° |
| 2026-05-05 17:38 | 64.85034 | -61.08326 | 39041 ft | 500 kts | 71° |
| 2026-05-05 17:38 | 64.87659 | -60.93180 | 39060 ft | 499 kts | 72° |
| 2026-05-05 17:39 | 64.90261 | -60.78027 | 39061 ft | 499 kts | 72° |
| 2026-05-05 17:39 | 64.92845 | -60.62845 | 39063 ft | 499 kts | 72° |
| 2026-05-05 17:40 | 64.95418 | -60.47647 | 39065 ft | 499 kts | 73° |
| 2026-05-05 17:40 | 64.97980 | -60.32404 | 39065 ft | 498 kts | 72° |
| 2026-05-05 17:41 | 65.00508 | -60.17235 | 39075 ft | 498 kts | 72° |
| 2026-05-05 17:41 | 65.03028 | -60.01979 | 39074 ft | 498 kts | 72° |
| 2026-05-05 17:42 | 65.05355 | -59.86537 | 39069 ft | 495 kts | 76° |
| 2026-05-05 17:42 | 65.07331 | -59.70930 | 39069 ft | 494 kts | 77° |
| 2026-05-05 17:43 | 65.09294 | -59.55322 | 39064 ft | 493 kts | 76° |
| 2026-05-05 17:43 | 65.11285 | -59.39811 | 39080 ft | 495 kts | 76° |
| 2026-05-05 17:44 | 65.13302 | -59.24155 | 39080 ft | 496 kts | 76° |
| 2026-05-05 17:44 | 65.15309 | -59.08473 | 39080 ft | 496 kts | 77° |
| 2026-05-05 17:45 | 65.17297 | -58.92759 | 39078 ft | 496 kts | 76° |
| 2026-05-05 17:45 | 65.19268 | -58.77007 | 39078 ft | 496 kts | 77° |
| 2026-05-05 17:46 | 65.21220 | -58.61248 | 39082 ft | 496 kts | 76° |
| 2026-05-05 17:46 | 65.23156 | -58.45470 | 39072 ft | 496 kts | 76° |
| 2026-05-05 17:47 | 65.25080 | -58.29626 | 39090 ft | 498 kts | 76° |
| 2026-05-05 17:47 | 65.26992 | -58.13728 | 39080 ft | 499 kts | 76° |
| 2026-05-05 17:48 | 65.28878 | -57.97881 | 39094 ft | 499 kts | 77° |
| 2026-05-05 17:48 | 65.30762 | -57.81895 | 39101 ft | 499 kts | 77° |
| 2026-05-05 17:49 | 65.32625 | -57.65917 | 39089 ft | 499 kts | 77° |
| 2026-05-05 17:49 | 65.34473 | -57.49896 | 39084 ft | 499 kts | 77° |
| 2026-05-05 17:50 | 65.36307 | -57.33829 | 39093 ft | 500 kts | 77° |
| 2026-05-05 17:50 | 65.38126 | -57.17719 | 39089 ft | 501 kts | 77° |
| 2026-05-05 17:51 | 65.39920 | -57.01656 | 39094 ft | 501 kts | 77° |
| 2026-05-05 17:51 | 65.41708 | -56.85469 | 39095 ft | 501 kts | 77° |
| 2026-05-05 17:52 | 65.43479 | -56.69263 | 39092 ft | 501 kts | 77° |
| 2026-05-05 17:52 | 65.45232 | -56.53039 | 39094 ft | 501 kts | 77° |
| 2026-05-05 17:53 | 65.46686 | -56.39437 | 39094 ft | 501 kts | 77° |
| 2026-05-05 17:53 | 65.48411 | -56.23128 | 39076 ft | 503 kts | 77° |
| 2026-05-05 17:54 | 65.50114 | -56.06856 | 39086 ft | 503 kts | 77° |
| 2026-05-05 17:54 | 65.51807 | -55.90481 | 39086 ft | 504 kts | 77° |
| 2026-05-05 17:55 | 65.53485 | -55.74054 | 39084 ft | 504 kts | 77° |
| 2026-05-05 17:55 | 65.55145 | -55.57619 | 39080 ft | 504 kts | 77° |
| 2026-05-05 17:56 | 65.56787 | -55.41160 | 39084 ft | 504 kts | 78° |
| 2026-05-05 17:56 | 65.58409 | -55.24693 | 39081 ft | 505 kts | 77° |
| 2026-05-05 17:57 | 65.60022 | -55.08122 | 39081 ft | 507 kts | 77° |
| 2026-05-05 17:57 | 65.61620 | -54.91498 | 39078 ft | 507 kts | 77° |
| 2026-05-05 17:58 | 65.63202 | -54.74842 | 39078 ft | 507 kts | 78° |
| 2026-05-05 17:58 | 65.64765 | -54.58159 | 39075 ft | 507 kts | 78° |
| 2026-05-05 17:59 | 65.66309 | -54.41470 | 39071 ft | 507 kts | 78° |
| 2026-05-05 17:59 | 65.67827 | -54.24847 | 39068 ft | 507 kts | 78° |
| 2026-05-05 18:00 | 65.69338 | -54.08080 | 39076 ft | 509 kts | 78° |
| 2026-05-05 18:00 | 65.70837 | -53.91221 | 39065 ft | 511 kts | 78° |
| 2026-05-05 18:01 | 65.72320 | -53.74311 | 39062 ft | 511 kts | 78° |
| 2026-05-05 18:01 | 65.73773 | -53.57505 | 39061 ft | 511 kts | 78° |
| 2026-05-05 18:02 | 65.75218 | -53.40566 | 39060 ft | 511 kts | 78° |
| 2026-05-05 18:02 | 65.76643 | -53.23626 | 39061 ft | 511 kts | 78° |
| 2026-05-05 18:03 | 65.78050 | -53.06658 | 39073 ft | 512 kts | 78° |
| 2026-05-05 18:03 | 65.79445 | -52.89580 | 39064 ft | 515 kts | 78° |
| 2026-05-05 18:04 | 65.80824 | -52.72446 | 39066 ft | 515 kts | 78° |
| 2026-05-05 18:04 | 65.82187 | -52.55271 | 39076 ft | 516 kts | 79° |
| 2026-05-05 18:05 | 65.83531 | -52.38056 | 39074 ft | 516 kts | 79° |
| 2026-05-05 18:05 | 65.84856 | -52.20805 | 39090 ft | 516 kts | 79° |
| 2026-05-05 18:06 | 65.86152 | -52.03685 | 39096 ft | 516 kts | 79° |
| 2026-05-05 18:06 | 65.87443 | -51.86349 | 39087 ft | 520 kts | 79° |
| 2026-05-05 18:07 | 65.88722 | -51.68911 | 39084 ft | 521 kts | 79° |
| 2026-05-05 18:07 | 65.89981 | -51.51448 | 39087 ft | 522 kts | 79° |
| 2026-05-05 18:08 | 65.91223 | -51.33913 | 39084 ft | 522 kts | 79° |
| 2026-05-05 18:08 | 65.92444 | -51.16373 | 39087 ft | 522 kts | 79° |
| 2026-05-05 18:09 | 65.93644 | -50.98830 | 39090 ft | 522 kts | 79° |
| 2026-05-05 18:09 | 65.94826 | -50.81253 | 39102 ft | 524 kts | 79° |
| 2026-05-05 18:10 | 65.95986 | -50.63699 | 39109 ft | 525 kts | 79° |
| 2026-05-05 18:10 | 65.97135 | -50.45992 | 39124 ft | 526 kts | 79° |
| 2026-05-05 18:11 | 65.98266 | -50.28231 | 39119 ft | 526 kts | 80° |
| 2026-05-05 18:11 | 65.99375 | -50.10455 | 39107 ft | 527 kts | 80° |
| 2026-05-05 18:12 | 66.00424 | -49.92643 | 39118 ft | 527 kts | 83° |
| 2026-05-05 18:12 | 66.00996 | -49.74688 | 39105 ft | 527 kts | 85° |
| 2026-05-05 18:13 | 66.01420 | -49.56707 | 39111 ft | 527 kts | 85° |
| 2026-05-05 18:13 | 66.01882 | -49.38843 | 39110 ft | 526 kts | 85° |
| 2026-05-05 18:14 | 66.02374 | -49.20875 | 39115 ft | 526 kts | 85° |
| 2026-05-05 18:14 | 66.02859 | -49.02913 | 39109 ft | 526 kts | 85° |
| 2026-05-05 18:15 | 66.03322 | -48.84959 | 39113 ft | 526 kts | 85° |
| 2026-05-05 18:15 | 66.03760 | -48.66998 | 39106 ft | 526 kts | 85° |
| 2026-05-05 18:16 | 66.04177 | -48.49012 | 39108 ft | 528 kts | 85° |
| 2026-05-05 18:16 | 66.04573 | -48.31076 | 39107 ft | 529 kts | 85° |
| 2026-05-05 18:17 | 66.04952 | -48.12949 | 39099 ft | 529 kts | 85° |
| 2026-05-05 18:17 | 66.05308 | -47.94848 | 39102 ft | 530 kts | 85° |
| 2026-05-05 18:18 | 66.05643 | -47.76739 | 39103 ft | 530 kts | 85° |
| 2026-05-05 18:18 | 66.05958 | -47.58602 | 39112 ft | 530 kts | 85° |
| 2026-05-05 18:19 | 66.06249 | -47.40488 | 39111 ft | 530 kts | 85° |
| 2026-05-05 18:19 | 66.06520 | -47.22319 | 39115 ft | 532 kts | 85° |
| 2026-05-05 18:20 | 66.06773 | -47.04094 | 39126 ft | 532 kts | 85° |
| 2026-05-05 18:20 | 66.07004 | -46.85869 | 39127 ft | 533 kts | 85° |
| 2026-05-05 18:21 | 66.07212 | -46.67747 | 39136 ft | 533 kts | 86° |
| 2026-05-05 18:21 | 66.07399 | -46.49477 | 39162 ft | 533 kts | 86° |
| 2026-05-05 18:22 | 66.07565 | -46.31221 | 39160 ft | 533 kts | 86° |
| 2026-05-05 18:22 | 66.07708 | -46.12940 | 39265 ft | 533 kts | 86° |
| 2026-05-05 18:23 | 66.07830 | -45.94641 | 39247 ft | 534 kts | 86° |
| 2026-05-05 18:23 | 66.07933 | -45.76313 | 39309 ft | 535 kts | 86° |
| 2026-05-05 18:24 | 66.08013 | -45.57959 | 39386 ft | 535 kts | 86° |
| 2026-05-05 18:24 | 66.08071 | -45.39623 | 39385 ft | 535 kts | 86° |
| 2026-05-05 18:25 | 66.08107 | -45.21283 | 39434 ft | 535 kts | 86° |
| 2026-05-05 18:25 | 66.08121 | -45.03035 | 39496 ft | 535 kts | 86° |
| 2026-05-05 18:26 | 66.08112 | -44.84702 | 39502 ft | 536 kts | 86° |
| 2026-05-05 18:26 | 66.08083 | -44.66315 | 39575 ft | 536 kts | 86° |
| 2026-05-05 18:27 | 66.08033 | -44.47926 | 39580 ft | 536 kts | 86° |
| 2026-05-05 18:27 | 66.07961 | -44.29557 | 39611 ft | 536 kts | 87° |
| 2026-05-05 18:28 | 66.07810 | -44.01963 | 39640 ft | 536 kts | 87° |
| 2026-05-05 18:28 | 66.07683 | -43.83587 | 39639 ft | 536 kts | 87° |
| 2026-05-05 18:29 | 66.07533 | -43.65224 | 39688 ft | 536 kts | 87° |
| 2026-05-05 18:29 | 66.07362 | -43.46865 | 39680 ft | 535 kts | 87° |
| 2026-05-05 18:30 | 66.07171 | -43.28635 | 39696 ft | 535 kts | 87° |
| 2026-05-05 18:30 | 66.06957 | -43.10295 | 39707 ft | 535 kts | 88° |
| 2026-05-05 18:31 | 66.06721 | -42.91977 | 39704 ft | 535 kts | 88° |
| 2026-05-05 18:31 | 66.06464 | -42.73656 | 39723 ft | 535 kts | 88° |
| 2026-05-05 18:32 | 66.06184 | -42.55332 | 39726 ft | 535 kts | 88° |
| 2026-05-05 18:32 | 66.05882 | -42.37024 | 39733 ft | 536 kts | 88° |
| 2026-05-05 18:33 | 66.05559 | -42.18701 | 39727 ft | 535 kts | 88° |
| 2026-05-05 18:33 | 66.05215 | -42.00391 | 39721 ft | 535 kts | 88° |
| 2026-05-05 18:34 | 66.04851 | -41.82200 | 39723 ft | 536 kts | 89° |
| 2026-05-05 18:34 | 66.04463 | -41.63886 | 39723 ft | 536 kts | 89° |
| 2026-05-05 18:35 | 66.04053 | -41.45564 | 39722 ft | 536 kts | 89° |
| 2026-05-05 18:35 | 66.03620 | -41.27236 | 39753 ft | 537 kts | 89° |
| 2026-05-05 18:36 | 66.03166 | -41.08870 | 39714 ft | 538 kts | 89° |
| 2026-05-05 18:36 | 66.02688 | -40.90486 | 39715 ft | 539 kts | 89° |
| 2026-05-05 18:37 | 66.02188 | -40.72080 | 39709 ft | 539 kts | 90° |
| 2026-05-05 18:37 | 66.01665 | -40.53689 | 39709 ft | 539 kts | 90° |
| 2026-05-05 18:38 | 66.01124 | -40.35403 | 39699 ft | 540 kts | 90° |
| 2026-05-05 18:38 | 66.00558 | -40.17006 | 39694 ft | 540 kts | 90° |
| 2026-05-05 18:39 | 66.00070 | -40.01697 | 39702 ft | 541 kts | 90° |
| 2026-05-05 18:39 | 65.99180 | -39.83254 | 39677 ft | 545 kts | 96° |
| 2026-05-05 18:40 | 65.97850 | -39.64893 | 39674 ft | 546 kts | 97° |
| 2026-05-05 18:40 | 65.96507 | -39.46525 | 39666 ft | 546 kts | 96° |
| 2026-05-05 18:41 | 65.95216 | -39.28175 | 39671 ft | 546 kts | 96° |
| 2026-05-05 18:41 | 65.93945 | -39.09946 | 39670 ft | 546 kts | 96° |
| 2026-05-05 18:42 | 65.92648 | -38.91600 | 39649 ft | 546 kts | 96° |
| 2026-05-05 18:42 | 65.91322 | -38.73239 | 39663 ft | 547 kts | 96° |
| 2026-05-05 18:43 | 65.89972 | -38.54878 | 39626 ft | 547 kts | 96° |
| 2026-05-05 18:43 | 65.88600 | -38.36542 | 39627 ft | 547 kts | 97° |
| 2026-05-05 18:44 | 65.87207 | -38.18230 | 39613 ft | 547 kts | 97° |
| 2026-05-05 18:44 | 65.85800 | -38.00052 | 39614 ft | 548 kts | 97° |
| 2026-05-05 18:45 | 65.84363 | -37.81772 | 39614 ft | 548 kts | 97° |
| 2026-05-05 18:45 | 65.82902 | -37.63498 | 39607 ft | 548 kts | 97° |
| 2026-05-05 18:46 | 65.81421 | -37.45261 | 39601 ft | 548 kts | 97° |
| 2026-05-05 18:46 | 65.79919 | -37.27059 | 39596 ft | 548 kts | 98° |
| 2026-05-05 18:47 | 65.78393 | -37.08846 | 39594 ft | 548 kts | 98° |
| 2026-05-05 18:47 | 65.76845 | -36.90644 | 39594 ft | 548 kts | 98° |
| 2026-05-05 18:48 | 65.75278 | -36.72501 | 39593 ft | 549 kts | 98° |
| 2026-05-05 18:48 | 65.73686 | -36.54334 | 39597 ft | 549 kts | 98° |
| 2026-05-05 18:49 | 65.72074 | -36.36211 | 39594 ft | 549 kts | 98° |
| 2026-05-05 18:49 | 65.70447 | -36.18186 | 39612 ft | 550 kts | 98° |
| 2026-05-05 18:50 | 65.68788 | -36.00056 | 39589 ft | 550 kts | 99° |
| 2026-05-05 18:50 | 65.67109 | -35.81974 | 39589 ft | 550 kts | 99° |
| 2026-05-05 18:51 | 65.65405 | -35.63879 | 39591 ft | 550 kts | 99° |
| 2026-05-05 18:51 | 65.63679 | -35.45797 | 39583 ft | 551 kts | 99° |
| 2026-05-05 18:52 | 65.61930 | -35.27726 | 39590 ft | 551 kts | 99° |
| 2026-05-05 18:52 | 65.60161 | -35.09690 | 39580 ft | 551 kts | 99° |
| 2026-05-05 18:53 | 65.58370 | -34.91680 | 39612 ft | 551 kts | 100° |
| 2026-05-05 18:53 | 65.56554 | -34.73654 | 39578 ft | 552 kts | 100° |
| 2026-05-05 18:54 | 65.54716 | -34.55637 | 39570 ft | 553 kts | 100° |
| 2026-05-05 18:54 | 65.52854 | -34.37630 | 39570 ft | 553 kts | 100° |
| 2026-05-05 18:55 | 65.50984 | -34.19780 | 39562 ft | 553 kts | 101° |
| 2026-05-05 18:55 | 65.49079 | -34.01811 | 39559 ft | 553 kts | 101° |
| 2026-05-05 18:56 | 65.47153 | -33.83880 | 39549 ft | 553 kts | 101° |
| 2026-05-05 18:56 | 65.45203 | -33.65952 | 39578 ft | 554 kts | 101° |
| 2026-05-05 18:57 | 65.43231 | -33.48034 | 39551 ft | 555 kts | 101° |
| 2026-05-05 18:57 | 65.41234 | -33.30114 | 39543 ft | 555 kts | 101° |
| 2026-05-05 18:58 | 65.39219 | -33.12242 | 39543 ft | 555 kts | 101° |
| 2026-05-05 18:58 | 65.37194 | -32.94500 | 39535 ft | 555 kts | 102° |
| 2026-05-05 18:59 | 65.35134 | -32.76670 | 39535 ft | 555 kts | 102° |
| 2026-05-05 18:59 | 65.33052 | -32.58853 | 39523 ft | 555 kts | 102° |
| 2026-05-05 19:00 | 65.30948 | -32.41057 | 39550 ft | 556 kts | 102° |
| 2026-05-05 19:00 | 65.28823 | -32.23286 | 39527 ft | 556 kts | 102° |
| 2026-05-05 19:01 | 65.26691 | -32.05662 | 39515 ft | 555 kts | 103° |
| 2026-05-05 19:01 | 65.24526 | -31.87964 | 39515 ft | 555 kts | 103° |
| 2026-05-05 19:02 | 65.22342 | -31.70307 | 39508 ft | 555 kts | 103° |
| 2026-05-05 19:02 | 65.20136 | -31.52665 | 39501 ft | 555 kts | 103° |
| 2026-05-05 19:03 | 65.17910 | -31.35064 | 39485 ft | 555 kts | 103° |
| 2026-05-05 19:03 | 65.15659 | -31.17460 | 39518 ft | 556 kts | 104° |
| 2026-05-05 19:04 | 65.13390 | -30.99896 | 39498 ft | 555 kts | 104° |
| 2026-05-05 19:04 | 65.11101 | -30.82377 | 39482 ft | 555 kts | 104° |
| 2026-05-05 19:05 | 65.08792 | -30.64894 | 39484 ft | 555 kts | 104° |
| 2026-05-05 19:05 | 65.06475 | -30.47522 | 39474 ft | 555 kts | 104° |
| 2026-05-05 19:06 | 65.04113 | -30.29997 | 39476 ft | 556 kts | 104° |
| 2026-05-05 19:06 | 65.01740 | -30.12578 | 39473 ft | 556 kts | 105° |
| 2026-05-05 19:07 | 65.00372 | -29.94826 | 39482 ft | 545 kts | 86° |
| 2026-05-05 19:07 | 65.00666 | -29.77119 | 39473 ft | 541 kts | 82° |
| 2026-05-05 19:08 | 65.01246 | -29.59404 | 39470 ft | 540 kts | 81° |
| 2026-05-05 19:08 | 65.01836 | -29.41671 | 39464 ft | 540 kts | 81° |
| 2026-05-05 19:09 | 65.02372 | -29.23938 | 39462 ft | 541 kts | 82° |
| 2026-05-05 19:09 | 65.02867 | -29.06185 | 39480 ft | 541 kts | 82° |
| 2026-05-05 19:10 | 65.03337 | -28.88406 | 39460 ft | 540 kts | 82° |
| 2026-05-05 19:10 | 65.03786 | -28.70639 | 39449 ft | 540 kts | 82° |
| 2026-05-05 19:11 | 65.04213 | -28.52995 | 39451 ft | 540 kts | 82° |
| 2026-05-05 19:11 | 65.04621 | -28.35249 | 39449 ft | 540 kts | 83° |
| 2026-05-05 19:12 | 65.05009 | -28.17493 | 39465 ft | 540 kts | 83° |
| 2026-05-05 19:12 | 65.05375 | -27.99713 | 39428 ft | 539 kts | 83° |
| 2026-05-05 19:13 | 65.05719 | -27.81968 | 39429 ft | 539 kts | 83° |
| 2026-05-05 19:13 | 65.06043 | -27.64236 | 39431 ft | 539 kts | 83° |
| 2026-05-05 19:14 | 65.06346 | -27.46471 | 39427 ft | 539 kts | 83° |
| 2026-05-05 19:14 | 65.06627 | -27.28723 | 39459 ft | 539 kts | 84° |
| 2026-05-05 19:15 | 65.06888 | -27.10961 | 39415 ft | 540 kts | 84° |
| 2026-05-05 19:15 | 65.07127 | -26.93168 | 39409 ft | 540 kts | 84° |
| 2026-05-05 19:16 | 65.07345 | -26.75474 | 39412 ft | 540 kts | 84° |
| 2026-05-05 19:16 | 65.07544 | -26.57675 | 39410 ft | 540 kts | 85° |
| 2026-05-05 19:17 | 65.07720 | -26.39856 | 39396 ft | 540 kts | 85° |
| 2026-05-05 19:17 | 65.07875 | -26.22044 | 39383 ft | 540 kts | 85° |
| 2026-05-05 19:18 | 65.08012 | -26.04202 | 39392 ft | 540 kts | 85° |
| 2026-05-05 19:18 | 65.08126 | -25.86366 | 39393 ft | 541 kts | 85° |
| 2026-05-05 19:19 | 65.08217 | -25.68619 | 39392 ft | 541 kts | 85° |
| 2026-05-05 19:19 | 65.08286 | -25.50797 | 39402 ft | 541 kts | 86° |
| 2026-05-05 19:20 | 65.08334 | -25.32956 | 39368 ft | 540 kts | 86° |
| 2026-05-05 19:20 | 65.08362 | -25.15176 | 39367 ft | 539 kts | 86° |
| 2026-05-05 19:21 | 65.08371 | -24.97392 | 39363 ft | 540 kts | 86° |
| 2026-05-05 19:21 | 65.08358 | -24.79579 | 39353 ft | 540 kts | 86° |
| 2026-05-05 19:22 | 65.08323 | -24.61772 | 39352 ft | 540 kts | 87° |
| 2026-05-05 19:22 | 65.08268 | -24.43950 | 39352 ft | 539 kts | 87° |
| 2026-05-05 19:23 | 65.08191 | -24.26289 | 39347 ft | 538 kts | 87° |
| 2026-05-05 19:23 | 65.08093 | -24.08564 | 39341 ft | 538 kts | 88° |
| 2026-05-05 19:24 | 65.07974 | -23.90812 | 39339 ft | 538 kts | 88° |
| 2026-05-05 19:24 | 65.07834 | -23.73084 | 39338 ft | 538 kts | 88° |
| 2026-05-05 19:25 | 65.07703 | -23.58349 | 39340 ft | 537 kts | 88° |
| 2026-05-05 19:25 | 65.07525 | -23.40655 | 39336 ft | 536 kts | 88° |
| 2026-05-05 19:26 | 65.07291 | -23.20105 | 39322 ft | 537 kts | 89° |
| 2026-05-05 19:26 | 65.07107 | -23.05370 | 39322 ft | 537 kts | 89° |
| 2026-05-05 19:27 | 65.06867 | -22.87657 | 39320 ft | 537 kts | 89° |
| 2026-05-05 19:27 | 65.06607 | -22.69962 | 39325 ft | 537 kts | 89° |
| 2026-05-05 19:28 | 65.06324 | -22.52255 | 39306 ft | 536 kts | 89° |
| 2026-05-05 19:28 | 65.06021 | -22.34603 | 39306 ft | 536 kts | 90° |
| 2026-05-05 19:29 | 65.05697 | -22.16952 | 39311 ft | 536 kts | 90° |
| 2026-05-05 19:29 | 65.05353 | -21.99302 | 39311 ft | 536 kts | 90° |
| 2026-05-05 19:30 | 65.04989 | -21.81657 | 39316 ft | 536 kts | 90° |
| 2026-05-05 19:30 | 65.04607 | -21.64167 | 39304 ft | 535 kts | 90° |
| 2026-05-05 19:31 | 65.04200 | -21.46557 | 39302 ft | 535 kts | 91° |
| 2026-05-05 19:31 | 65.03773 | -21.28971 | 39299 ft | 535 kts | 91° |
| 2026-05-05 19:32 | 65.03328 | -21.11372 | 39301 ft | 535 kts | 91° |
| 2026-05-05 19:32 | 65.02861 | -20.93789 | 39308 ft | 536 kts | 91° |
| 2026-05-05 19:33 | 65.02372 | -20.76219 | 39290 ft | 535 kts | 91° |
| 2026-05-05 19:33 | 65.01863 | -20.58674 | 39290 ft | 534 kts | 91° |
| 2026-05-05 19:34 | 65.01335 | -20.41146 | 39288 ft | 534 kts | 92° |
| 2026-05-05 19:35 | 65.00508 | -20.14975 | 39284 ft | 534 kts | 92° |
| 2026-05-05 19:35 | 64.99927 | -19.97462 | 39280 ft | 534 kts | 92° |
| 2026-05-05 19:36 | 64.98858 | -19.80063 | 39280 ft | 535 kts | 98° |
| 2026-05-05 19:36 | 64.97461 | -19.62808 | 39275 ft | 534 kts | 99° |
| 2026-05-05 19:37 | 64.96105 | -19.45668 | 39263 ft | 535 kts | 98° |
| 2026-05-05 19:37 | 64.94791 | -19.28382 | 39269 ft | 535 kts | 98° |
| 2026-05-05 19:38 | 64.93483 | -19.11089 | 39291 ft | 536 kts | 98° |
| 2026-05-05 19:38 | 64.92156 | -18.93817 | 39284 ft | 535 kts | 98° |
| 2026-05-05 19:39 | 64.90806 | -18.76571 | 39279 ft | 535 kts | 98° |
| 2026-05-05 19:39 | 64.89434 | -18.59332 | 39284 ft | 535 kts | 99° |
| 2026-05-05 19:40 | 64.88043 | -18.42122 | 39281 ft | 535 kts | 99° |
| 2026-05-05 19:40 | 64.86632 | -18.24942 | 39275 ft | 535 kts | 99° |
| 2026-05-05 19:41 | 64.85201 | -18.07758 | 39282 ft | 534 kts | 99° |
| 2026-05-05 19:41 | 64.83754 | -17.90654 | 39280 ft | 534 kts | 99° |
| 2026-05-05 19:42 | 64.82286 | -17.73538 | 39288 ft | 534 kts | 99° |
| 2026-05-05 19:42 | 64.80798 | -17.56442 | 39284 ft | 535 kts | 100° |
| 2026-05-05 19:43 | 64.79290 | -17.39366 | 39286 ft | 535 kts | 100° |
| 2026-05-05 19:43 | 64.77760 | -17.22278 | 39288 ft | 535 kts | 100° |
| 2026-05-05 19:44 | 64.76218 | -17.05299 | 39289 ft | 535 kts | 100° |
| 2026-05-05 19:44 | 64.74650 | -16.88262 | 39281 ft | 535 kts | 101° |
| 2026-05-05 19:45 | 64.73061 | -16.71234 | 39285 ft | 535 kts | 101° |
| 2026-05-05 19:45 | 64.71454 | -16.54244 | 39284 ft | 535 kts | 101° |
| 2026-05-05 19:46 | 64.69825 | -16.37238 | 39288 ft | 536 kts | 101° |
| 2026-05-05 19:46 | 64.68175 | -16.20234 | 39273 ft | 536 kts | 101° |
| 2026-05-05 19:47 | 64.66516 | -16.03371 | 39275 ft | 536 kts | 101° |
| 2026-05-05 19:47 | 64.64825 | -15.86396 | 39269 ft | 536 kts | 102° |
| 2026-05-05 19:48 | 64.63115 | -15.69444 | 39258 ft | 536 kts | 102° |
| 2026-05-05 19:48 | 64.61387 | -15.52524 | 39246 ft | 536 kts | 102° |
| 2026-05-05 19:49 | 64.59639 | -15.35621 | 39252 ft | 536 kts | 102° |
| 2026-05-05 19:49 | 64.57874 | -15.18767 | 39228 ft | 535 kts | 102° |
| 2026-05-05 19:50 | 64.56092 | -15.01962 | 39229 ft | 535 kts | 102° |
| 2026-05-05 19:50 | 64.54292 | -14.85175 | 39217 ft | 535 kts | 103° |
| 2026-05-05 19:51 | 64.52469 | -14.68370 | 39222 ft | 536 kts | 103° |
| 2026-05-05 19:51 | 64.50637 | -14.51687 | 39222 ft | 537 kts | 103° |
| 2026-05-05 19:52 | 64.48773 | -14.34909 | 39205 ft | 536 kts | 103° |
| 2026-05-05 19:52 | 64.46888 | -14.18143 | 39208 ft | 536 kts | 103° |
| 2026-05-05 19:53 | 64.44989 | -14.01443 | 39211 ft | 536 kts | 103° |
| 2026-05-05 19:53 | 64.43070 | -13.84752 | 39199 ft | 536 kts | 104° |
| 2026-05-05 19:54 | 64.41131 | -13.68077 | 39218 ft | 536 kts | 104° |
| 2026-05-05 19:54 | 64.39185 | -13.51523 | 39195 ft | 537 kts | 104° |
| 2026-05-05 19:55 | 64.37209 | -13.34895 | 39187 ft | 537 kts | 104° |
| 2026-05-05 19:55 | 64.35209 | -13.18250 | 39189 ft | 538 kts | 104° |
| 2026-05-05 19:56 | 64.33186 | -13.01597 | 39190 ft | 539 kts | 104° |
| 2026-05-05 19:56 | 64.31142 | -12.84957 | 39190 ft | 540 kts | 104° |
| 2026-05-05 19:57 | 64.29081 | -12.68348 | 39179 ft | 539 kts | 105° |
| 2026-05-05 19:57 | 64.26999 | -12.51755 | 39194 ft | 539 kts | 105° |
| 2026-05-05 19:58 | 64.24902 | -12.35210 | 39171 ft | 539 kts | 105° |
| 2026-05-05 19:58 | 64.22784 | -12.18671 | 39172 ft | 539 kts | 105° |
| 2026-05-05 19:59 | 64.20649 | -12.02174 | 39163 ft | 539 kts | 105° |
| 2026-05-05 19:59 | 64.18496 | -11.85708 | 39169 ft | 539 kts | 105° |
| 2026-05-05 20:00 | 64.16335 | -11.69338 | 39158 ft | 538 kts | 106° |
| 2026-05-05 20:00 | 64.14146 | -11.52931 | 39155 ft | 539 kts | 106° |
| 2026-05-05 20:01 | 64.11936 | -11.36525 | 39145 ft | 538 kts | 106° |
| 2026-05-05 20:01 | 64.09708 | -11.20155 | 39143 ft | 538 kts | 106° |
| 2026-05-05 20:02 | 64.07459 | -11.03793 | 39148 ft | 539 kts | 107° |
| 2026-05-05 20:02 | 64.05194 | -10.87470 | 39132 ft | 538 kts | 107° |
| 2026-05-05 20:03 | 64.02929 | -10.71300 | 39130 ft | 539 kts | 107° |
| 2026-05-05 20:03 | 64.00631 | -10.55048 | 39131 ft | 538 kts | 107° |
| 2026-05-05 20:04 | 63.98315 | -10.38829 | 39112 ft | 538 kts | 107° |
| 2026-05-05 20:04 | 63.95983 | -10.22656 | 39116 ft | 538 kts | 107° |
| 2026-05-05 20:05 | 63.93628 | -10.06472 | 39119 ft | 538 kts | 108° |
| 2026-05-05 20:05 | 63.91253 | -9.90299 | 39107 ft | 538 kts | 108° |
| 2026-05-05 20:06 | 63.88880 | -9.74296 | 39107 ft | 538 kts | 108° |
| 2026-05-05 20:06 | 63.86472 | -9.58194 | 39100 ft | 538 kts | 108° |
| 2026-05-05 20:07 | 63.84048 | -9.42137 | 39100 ft | 539 kts | 108° |
| 2026-05-05 20:07 | 63.81603 | -9.26082 | 39087 ft | 539 kts | 108° |
| 2026-05-05 20:08 | 63.79139 | -9.10055 | 39091 ft | 539 kts | 109° |
| 2026-05-05 20:08 | 63.76658 | -8.94055 | 39077 ft | 539 kts | 109° |
| 2026-05-05 20:09 | 63.74161 | -8.78090 | 39083 ft | 539 kts | 109° |
| 2026-05-05 20:09 | 63.71646 | -8.62160 | 39075 ft | 539 kts | 109° |
| 2026-05-05 20:10 | 63.69128 | -8.46350 | 39076 ft | 539 kts | 109° |
| 2026-05-05 20:10 | 63.66577 | -8.30461 | 39068 ft | 539 kts | 109° |
| 2026-05-05 20:11 | 63.64010 | -8.14620 | 39065 ft | 539 kts | 110° |
| 2026-05-05 20:11 | 63.61425 | -7.98796 | 39071 ft | 539 kts | 110° |
| 2026-05-05 20:12 | 63.58824 | -7.83012 | 39074 ft | 539 kts | 110° |
| 2026-05-05 20:12 | 63.56203 | -7.67240 | 39062 ft | 539 kts | 110° |
| 2026-05-05 20:13 | 63.53561 | -7.51475 | 39060 ft | 540 kts | 110° |
| 2026-05-05 20:13 | 63.51352 | -7.38394 | 39064 ft | 540 kts | 110° |
| 2026-05-05 20:14 | 63.48675 | -7.22665 | 39055 ft | 540 kts | 111° |
| 2026-05-05 20:14 | 63.45982 | -7.06976 | 39055 ft | 540 kts | 111° |
| 2026-05-05 20:15 | 63.43269 | -6.91296 | 39054 ft | 540 kts | 111° |
| 2026-05-05 20:15 | 63.40539 | -6.75643 | 39054 ft | 541 kts | 111° |
| 2026-05-05 20:16 | 63.37788 | -6.60003 | 39043 ft | 541 kts | 111° |
| 2026-05-05 20:16 | 63.35023 | -6.44407 | 39047 ft | 541 kts | 111° |
| 2026-05-05 20:17 | 63.32241 | -6.28845 | 39043 ft | 541 kts | 111° |
| 2026-05-05 20:17 | 63.29443 | -6.13311 | 39030 ft | 541 kts | 112° |
| 2026-05-05 20:18 | 63.26636 | -5.97857 | 39036 ft | 542 kts | 112° |
| 2026-05-05 20:18 | 63.23795 | -5.82338 | 39034 ft | 542 kts | 112° |
| 2026-05-05 20:19 | 63.20934 | -5.66827 | 39030 ft | 542 kts | 112° |
| 2026-05-05 20:19 | 63.18060 | -5.51374 | 39029 ft | 542 kts | 112° |
| 2026-05-05 20:20 | 63.15186 | -5.36039 | 39017 ft | 542 kts | 112° |
| 2026-05-05 20:20 | 63.12281 | -5.20657 | 39020 ft | 542 kts | 113° |
| 2026-05-05 20:21 | 63.09355 | -5.05283 | 39021 ft | 542 kts | 113° |
| 2026-05-05 20:21 | 63.06413 | -4.89946 | 39020 ft | 542 kts | 113° |
| 2026-05-05 20:22 | 63.03457 | -4.74647 | 39010 ft | 543 kts | 113° |
| 2026-05-05 20:22 | 63.00477 | -4.59344 | 39016 ft | 544 kts | 114° |
| 2026-05-05 20:23 | 62.97479 | -4.44065 | 39013 ft | 544 kts | 114° |
| 2026-05-05 20:23 | 62.94463 | -4.28813 | 39011 ft | 544 kts | 114° |
| 2026-05-05 20:24 | 62.91434 | -4.13603 | 39007 ft | 544 kts | 114° |
| 2026-05-05 20:24 | 62.88384 | -3.98407 | 39003 ft | 544 kts | 114° |
| 2026-05-05 20:25 | 62.85319 | -3.83245 | 39002 ft | 544 kts | 114° |
| 2026-05-05 20:25 | 62.82241 | -3.68132 | 39009 ft | 544 kts | 115° |
| 2026-05-05 20:26 | 62.79163 | -3.53132 | 39004 ft | 544 kts | 115° |
| 2026-05-05 20:26 | 62.76053 | -3.38082 | 38997 ft | 544 kts | 115° |
| 2026-05-05 20:27 | 62.72919 | -3.23025 | 39004 ft | 545 kts | 115° |
| 2026-05-05 20:27 | 62.69763 | -3.07975 | 39004 ft | 545 kts | 115° |
| 2026-05-05 20:28 | 62.66597 | -2.92985 | 39003 ft | 545 kts | 115° |
| 2026-05-05 20:28 | 62.63409 | -2.77996 | 38999 ft | 546 kts | 116° |
| 2026-05-05 20:29 | 62.60207 | -2.63051 | 39002 ft | 546 kts | 116° |
| 2026-05-05 20:29 | 62.56989 | -2.48140 | 39001 ft | 546 kts | 116° |
| 2026-05-05 20:30 | 62.53754 | -2.33251 | 39002 ft | 546 kts | 116° |
| 2026-05-05 20:30 | 62.50504 | -2.18404 | 38986 ft | 546 kts | 116° |
| 2026-05-05 20:31 | 62.47233 | -2.03561 | 38997 ft | 547 kts | 116° |
| 2026-05-05 20:31 | 62.43946 | -1.88749 | 39008 ft | 547 kts | 117° |
| 2026-05-05 20:32 | 62.40639 | -1.73954 | 39010 ft | 547 kts | 117° |
| 2026-05-05 20:32 | 62.37336 | -1.59276 | 39015 ft | 547 kts | 117° |
| 2026-05-05 20:33 | 62.33995 | -1.44532 | 39016 ft | 547 kts | 117° |
| 2026-05-05 20:33 | 62.30641 | -1.29831 | 39018 ft | 548 kts | 117° |
| 2026-05-05 20:34 | 62.27271 | -1.15162 | 39023 ft | 548 kts | 117° |
| 2026-05-05 20:34 | 62.23883 | -1.00514 | 39023 ft | 548 kts | 117° |
| 2026-05-05 20:35 | 62.20483 | -0.85910 | 39008 ft | 547 kts | 118° |
| 2026-05-05 20:35 | 62.17067 | -0.71343 | 39011 ft | 548 kts | 118° |
| 2026-05-05 20:36 | 62.13633 | -0.56793 | 39016 ft | 548 kts | 118° |
| 2026-05-05 20:36 | 62.10182 | -0.42267 | 39016 ft | 548 kts | 118° |
| 2026-05-05 20:37 | 62.06715 | -0.27776 | 39016 ft | 548 kts | 118° |
| 2026-05-05 20:37 | 62.03233 | -0.13313 | 39020 ft | 548 kts | 118° |
| 2026-05-05 20:38 | 62.00038 | 0.01398 | 39018 ft | 549 kts | 109° |
| 2026-05-05 20:38 | 61.98032 | 0.17087 | 39021 ft | 550 kts | 104° |
| 2026-05-05 20:39 | 61.96272 | 0.32831 | 39014 ft | 550 kts | 104° |
| 2026-05-05 20:39 | 61.94509 | 0.48673 | 39012 ft | 550 kts | 104° |
| 2026-05-05 20:40 | 61.92707 | 0.64466 | 39009 ft | 550 kts | 104° |
| 2026-05-05 20:40 | 61.90872 | 0.80235 | 39012 ft | 550 kts | 105° |
| 2026-05-05 20:41 | 61.89013 | 0.95995 | 39015 ft | 551 kts | 105° |
| 2026-05-05 20:41 | 61.87132 | 1.11771 | 39015 ft | 552 kts | 105° |
| 2026-05-05 20:42 | 61.85232 | 1.27546 | 39011 ft | 552 kts | 105° |
| 2026-05-05 20:42 | 61.83317 | 1.43281 | 39009 ft | 552 kts | 105° |
| 2026-05-05 20:43 | 61.81395 | 1.58908 | 39007 ft | 553 kts | 105° |
| 2026-05-05 20:43 | 61.79439 | 1.74649 | 39007 ft | 553 kts | 106° |
| 2026-05-05 20:44 | 61.77466 | 1.90359 | 39007 ft | 553 kts | 106° |
| 2026-05-05 20:44 | 61.75473 | 2.06057 | 38996 ft | 553 kts | 106° |
| 2026-05-05 20:45 | 61.72447 | 2.29600 | 38990 ft | 554 kts | 106° |
| 2026-05-05 20:45 | 61.70421 | 2.45165 | 38989 ft | 554 kts | 106° |
| 2026-05-05 20:46 | 61.68364 | 2.60807 | 38993 ft | 554 kts | 107° |
| 2026-05-05 20:46 | 61.66290 | 2.76425 | 38993 ft | 554 kts | 107° |
| 2026-05-05 20:47 | 61.64200 | 2.92008 | 38998 ft | 554 kts | 107° |
| 2026-05-05 20:47 | 61.62088 | 3.07605 | 38999 ft | 554 kts | 107° |
| 2026-05-05 20:48 | 61.59959 | 3.23168 | 38991 ft | 554 kts | 107° |
| 2026-05-05 20:48 | 61.57814 | 3.38702 | 38991 ft | 554 kts | 107° |
| 2026-05-05 20:49 | 61.55652 | 3.54210 | 38983 ft | 554 kts | 107° |
| 2026-05-05 20:49 | 61.53470 | 3.69709 | 38988 ft | 554 kts | 108° |
| 2026-05-05 20:50 | 61.51645 | 3.82567 | 38988 ft | 554 kts | 108° |
| 2026-05-05 20:50 | 61.49071 | 4.00529 | 38999 ft | 554 kts | 108° |
| 2026-05-05 20:51 | 61.46838 | 4.15958 | 38999 ft | 554 kts | 108° |
| 2026-05-05 20:51 | 61.44588 | 4.31358 | 38997 ft | 554 kts | 108° |
| 2026-05-05 20:52 | 61.42321 | 4.46739 | 38996 ft | 554 kts | 108° |
| 2026-05-05 20:52 | 61.40036 | 4.62099 | 38996 ft | 554 kts | 108° |
| 2026-05-05 20:53 | 61.37734 | 4.77433 | 38998 ft | 554 kts | 109° |
| 2026-05-05 20:53 | 61.35412 | 4.92768 | 38997 ft | 554 kts | 109° |
| 2026-05-05 20:54 | 61.33073 | 5.08072 | 39002 ft | 554 kts | 109° |
| 2026-05-05 20:54 | 61.30733 | 5.23253 | 39007 ft | 554 kts | 109° |
| 2026-05-05 20:55 | 61.28358 | 5.38524 | 39004 ft | 555 kts | 109° |
| 2026-05-05 20:55 | 61.25967 | 5.53769 | 39001 ft | 555 kts | 109° |
| 2026-05-05 20:56 | 61.23557 | 5.68997 | 38971 ft | 555 kts | 109° |
| 2026-05-05 20:56 | 61.21129 | 5.84214 | 38979 ft | 555 kts | 110° |
| 2026-05-05 20:57 | 61.18682 | 5.99415 | 38980 ft | 556 kts | 110° |
| 2026-05-05 20:57 | 61.16217 | 6.14598 | 38988 ft | 556 kts | 110° |
| 2026-05-05 20:58 | 61.13733 | 6.29770 | 39001 ft | 556 kts | 110° |
| 2026-05-05 20:58 | 61.11233 | 6.44918 | 38997 ft | 556 kts | 110° |
| 2026-05-05 20:59 | 61.09141 | 6.57494 | 38966 ft | 556 kts | 110° |
| 2026-05-05 20:59 | 61.06610 | 6.72608 | 38969 ft | 556 kts | 110° |
| 2026-05-05 21:00 | 61.04062 | 6.87678 | 38995 ft | 555 kts | 111° |
| 2026-05-05 21:00 | 61.02786 | 6.95183 | 39143 ft | 552 kts | 111° |
| 2026-05-05 21:00 | 61.01513 | 7.02637 | 39252 ft | 551 kts | 111° |
| 2026-05-05 21:01 | 61.00237 | 7.10080 | 39382 ft | 550 kts | 111° |
| 2026-05-05 21:01 | 60.98957 | 7.17514 | 39498 ft | 550 kts | 111° |
| 2026-05-05 21:01 | 60.97677 | 7.24922 | 39601 ft | 549 kts | 111° |
| 2026-05-05 21:01 | 60.96392 | 7.32327 | 39731 ft | 549 kts | 111° |
| 2026-05-05 21:02 | 60.95105 | 7.39715 | 39853 ft | 548 kts | 111° |
| 2026-05-05 21:02 | 60.93812 | 7.47097 | 39944 ft | 548 kts | 111° |
| 2026-05-05 21:02 | 60.92168 | 7.54143 | 40010 ft | 545 kts | 123° |
| 2026-05-05 21:02 | 60.90183 | 7.60783 | 40064 ft | 545 kts | 125° |
| 2026-05-05 21:03 | 60.86108 | 7.73839 | 39890 ft | 544 kts | 126° |
| 2026-05-05 21:03 | 60.84053 | 7.80359 | 39446 ft | 545 kts | 126° |
| 2026-05-05 21:03 | 60.81979 | 7.86909 | 38880 ft | 549 kts | 126° |
| 2026-05-05 21:04 | 60.79894 | 7.93476 | 38253 ft | 551 kts | 126° |
| 2026-05-05 21:04 | 60.77793 | 8.00074 | 37668 ft | 553 kts | 126° |
| 2026-05-05 21:04 | 60.75692 | 8.06655 | 37113 ft | 554 kts | 127° |
| 2026-05-05 21:04 | 60.73583 | 8.13243 | 36599 ft | 554 kts | 127° |
| 2026-05-05 21:05 | 60.71461 | 8.19847 | 35949 ft | 558 kts | 127° |
| 2026-05-05 21:05 | 60.69321 | 8.26490 | 35293 ft | 562 kts | 127° |
| 2026-05-05 21:05 | 60.67165 | 8.33163 | 34672 ft | 565 kts | 128° |
| 2026-05-05 21:05 | 60.64993 | 8.39868 | 34048 ft | 568 kts | 128° |
| 2026-05-05 21:06 | 60.62805 | 8.46602 | 33297 ft | 570 kts | 128° |
| 2026-05-05 21:06 | 60.60608 | 8.53345 | 32584 ft | 572 kts | 129° |
| 2026-05-05 21:06 | 60.58402 | 8.60096 | 31882 ft | 574 kts | 129° |
| 2026-05-05 21:06 | 60.56182 | 8.66868 | 31187 ft | 576 kts | 129° |
| 2026-05-05 21:07 | 60.53949 | 8.73662 | 30504 ft | 578 kts | 129° |
| 2026-05-05 21:07 | 60.51706 | 8.80465 | 29811 ft | 580 kts | 130° |
| 2026-05-05 21:07 | 60.49488 | 8.87175 | 29205 ft | 579 kts | 130° |
| 2026-05-05 21:07 | 60.47248 | 8.93933 | 28891 ft | 576 kts | 130° |
| 2026-05-05 21:08 | 60.45020 | 9.00636 | 28636 ft | 572 kts | 130° |
| 2026-05-05 21:08 | 60.42800 | 9.07292 | 28462 ft | 567 kts | 130° |
| 2026-05-05 21:08 | 60.40597 | 9.13880 | 28287 ft | 564 kts | 130° |
| 2026-05-05 21:08 | 60.38394 | 9.20449 | 27992 ft | 563 kts | 130° |
| 2026-05-05 21:09 | 60.36196 | 9.26984 | 27782 ft | 562 kts | 130° |
| 2026-05-05 21:09 | 60.33998 | 9.33497 | 27612 ft | 560 kts | 130° |
| 2026-05-05 21:09 | 60.31879 | 9.40094 | 27411 ft | 563 kts | 124° |
| 2026-05-05 21:09 | 60.30331 | 9.47424 | 27178 ft | 572 kts | 109° |
| 2026-05-05 21:10 | 60.29637 | 9.55325 | 26950 ft | 575 kts | 94° |
| 2026-05-05 21:10 | 60.29851 | 9.63353 | 26788 ft | 572 kts | 78° |
| 2026-05-05 21:10 | 60.30952 | 9.70991 | 26630 ft | 565 kts | 63° |
| 2026-05-05 21:10 | 60.32863 | 9.77785 | 26546 ft | 551 kts | 47° |
| 2026-05-05 21:11 | 60.35439 | 9.83334 | 26482 ft | 534 kts | 32° |
| 2026-05-05 21:11 | 60.38501 | 9.87338 | 26438 ft | 513 kts | 16° |
| 2026-05-05 21:11 | 60.41793 | 9.89552 | 26514 ft | 484 kts | 0° |
| 2026-05-05 21:11 | 60.45019 | 9.89954 | 26535 ft | 444 kts | 344° |
| 2026-05-05 21:12 | 60.47815 | 9.88732 | 26480 ft | 383 kts | 327° |
| 2026-05-05 21:12 | 60.49902 | 9.86217 | 26393 ft | 328 kts | 307° |
| 2026-05-05 21:12 | 60.51134 | 9.82771 | 26301 ft | 285 kts | 285° |
| 2026-05-05 21:12 | 60.51510 | 9.78932 | 26178 ft | 276 kts | 273° |
| 2026-05-05 21:13 | 60.51574 | 9.75040 | 26059 ft | 276 kts | 269° |
| 2026-05-05 21:13 | 60.51494 | 9.71151 | 25870 ft | 275 kts | 266° |
| 2026-05-05 21:13 | 60.51268 | 9.67297 | 25466 ft | 274 kts | 263° |
| 2026-05-05 21:13 | 60.50883 | 9.63511 | 24919 ft | 274 kts | 259° |
| 2026-05-05 21:14 | 60.50335 | 9.59780 | 24284 ft | 278 kts | 257° |
| 2026-05-05 21:14 | 60.49944 | 9.55942 | 23677 ft | 280 kts | 266° |
| 2026-05-05 21:14 | 60.49998 | 9.51971 | 22953 ft | 284 kts | 276° |
| 2026-05-05 21:14 | 60.50325 | 9.47986 | 22219 ft | 288 kts | 279° |
| 2026-05-05 21:15 | 60.50694 | 9.43976 | 21496 ft | 286 kts | 279° |
| 2026-05-05 21:15 | 60.50947 | 9.40048 | 20813 ft | 276 kts | 272° |
| 2026-05-05 21:15 | 60.50609 | 9.36258 | 20144 ft | 275 kts | 252° |
| 2026-05-05 21:15 | 60.49782 | 9.32719 | 19483 ft | 280 kts | 247° |
| 2026-05-05 21:16 | 60.48872 | 9.29248 | 18852 ft | 284 kts | 246° |
| 2026-05-05 21:16 | 60.47880 | 9.25755 | 18209 ft | 288 kts | 242° |
| 2026-05-05 21:16 | 60.46655 | 9.22496 | 17456 ft | 294 kts | 232° |
| 2026-05-05 21:16 | 60.45077 | 9.19802 | 16746 ft | 301 kts | 217° |
| 2026-05-05 21:17 | 60.43187 | 9.17893 | 16156 ft | 306 kts | 207° |
| 2026-05-05 21:17 | 60.41104 | 9.16828 | 15976 ft | 314 kts | 191° |
| 2026-05-05 21:17 | 60.38917 | 9.17139 | 15456 ft | 320 kts | 169° |
| 2026-05-05 21:17 | 60.36991 | 9.19338 | 14884 ft | 318 kts | 138° |
| 2026-05-05 21:18 | 60.35811 | 9.22972 | 14488 ft | 307 kts | 111° |
| 2026-05-05 21:18 | 60.35526 | 9.27128 | 14049 ft | 297 kts | 83° |
| 2026-05-05 21:18 | 60.35694 | 9.31303 | 14025 ft | 299 kts | 83° |
| 2026-05-05 21:18 | 60.35813 | 9.35486 | 14027 ft | 298 kts | 85° |
| 2026-05-05 21:19 | 60.35852 | 9.39675 | 14016 ft | 299 kts | 88° |
| 2026-05-05 21:19 | 60.35803 | 9.43881 | 14028 ft | 299 kts | 91° |
| 2026-05-05 21:19 | 60.35662 | 9.48053 | 13931 ft | 297 kts | 94° |
| 2026-05-05 21:19 | 60.35422 | 9.52178 | 13544 ft | 295 kts | 97° |
| 2026-05-05 21:20 | 60.35077 | 9.56255 | 13166 ft | 294 kts | 100° |
| 2026-05-05 21:20 | 60.34602 | 9.60251 | 12787 ft | 292 kts | 107° |
| 2026-05-05 21:20 | 60.33787 | 9.63966 | 12441 ft | 288 kts | 118° |
| 2026-05-05 21:20 | 60.32805 | 9.67488 | 12184 ft | 287 kts | 121° |
| 2026-05-05 21:21 | 60.31801 | 9.70896 | 11961 ft | 286 kts | 121° |
| 2026-05-05 21:21 | 60.30772 | 9.74310 | 11755 ft | 284 kts | 122° |
| 2026-05-05 21:21 | 60.29728 | 9.77731 | 11500 ft | 281 kts | 122° |
| 2026-05-05 21:21 | 60.28717 | 9.81022 | 11268 ft | 277 kts | 122° |
| 2026-05-05 21:22 | 60.27713 | 9.84278 | 11041 ft | 270 kts | 122° |
| 2026-05-05 21:22 | 60.26730 | 9.87455 | 10812 ft | 264 kts | 122° |
| 2026-05-05 21:22 | 60.25767 | 9.90559 | 10588 ft | 258 kts | 122° |
| 2026-05-05 21:22 | 60.24828 | 9.93582 | 10363 ft | 252 kts | 122° |
| 2026-05-05 21:23 | 60.23911 | 9.96530 | 10119 ft | 246 kts | 122° |
| 2026-05-05 21:23 | 60.23010 | 9.99421 | 9895 ft | 241 kts | 122° |
| 2026-05-05 21:23 | 60.22129 | 10.02244 | 9657 ft | 236 kts | 122° |
| 2026-05-05 21:23 | 60.21270 | 10.04993 | 9446 ft | 228 kts | 122° |
| 2026-05-05 21:24 | 60.20439 | 10.07653 | 9205 ft | 222 kts | 123° |
| 2026-05-05 21:24 | 60.19616 | 10.10279 | 8965 ft | 221 kts | 123° |
| 2026-05-05 21:24 | 60.18795 | 10.12895 | 8724 ft | 221 kts | 123° |
| 2026-05-05 21:24 | 60.17978 | 10.15499 | 8485 ft | 220 kts | 123° |
| 2026-05-05 21:25 | 60.17162 | 10.18095 | 8221 ft | 219 kts | 123° |
| 2026-05-05 21:25 | 60.16352 | 10.20672 | 7993 ft | 218 kts | 123° |
| 2026-05-05 21:25 | 60.15545 | 10.23234 | 7754 ft | 217 kts | 123° |
| 2026-05-05 21:25 | 60.14739 | 10.25791 | 7520 ft | 216 kts | 123° |
| 2026-05-05 21:26 | 60.13948 | 10.28296 | 7290 ft | 215 kts | 123° |
| 2026-05-05 21:26 | 60.13151 | 10.30818 | 7049 ft | 214 kts | 123° |
| 2026-05-05 21:26 | 60.12358 | 10.33324 | 6823 ft | 212 kts | 123° |
| 2026-05-05 21:26 | 60.11567 | 10.35823 | 6595 ft | 212 kts | 123° |
| 2026-05-05 21:27 | 60.10780 | 10.38307 | 6371 ft | 211 kts | 123° |
| 2026-05-05 21:27 | 60.09993 | 10.40787 | 6137 ft | 210 kts | 122° |
| 2026-05-05 21:27 | 60.09207 | 10.43259 | 5891 ft | 210 kts | 122° |
| 2026-05-05 21:27 | 60.08422 | 10.45725 | 5636 ft | 210 kts | 122° |
| 2026-05-05 21:28 | 60.07639 | 10.48184 | 5400 ft | 209 kts | 122° |
| 2026-05-05 21:28 | 60.06859 | 10.50631 | 5170 ft | 208 kts | 122° |
| 2026-05-05 21:28 | 60.06081 | 10.53071 | 4955 ft | 207 kts | 121° |
| 2026-05-05 21:28 | 60.05305 | 10.55501 | 4934 ft | 207 kts | 121° |
| 2026-05-05 21:29 | 60.04527 | 10.57936 | 4930 ft | 207 kts | 122° |
| 2026-05-05 21:29 | 60.03751 | 10.60364 | 4918 ft | 207 kts | 122° |
| 2026-05-05 21:29 | 60.02970 | 10.62802 | 4928 ft | 208 kts | 122° |
| 2026-05-05 21:29 | 60.02193 | 10.65225 | 4926 ft | 208 kts | 122° |
| 2026-05-05 21:30 | 60.01416 | 10.67653 | 4924 ft | 206 kts | 123° |
| 2026-05-05 21:30 | 60.00655 | 10.70022 | 4926 ft | 205 kts | 123° |
| 2026-05-05 21:30 | 59.99885 | 10.72415 | 4926 ft | 205 kts | 123° |
| 2026-05-05 21:30 | 59.99115 | 10.74803 | 4925 ft | 204 kts | 123° |
| 2026-05-05 21:31 | 59.98348 | 10.77186 | 4926 ft | 204 kts | 123° |
| 2026-05-05 21:31 | 59.97735 | 10.79743 | 4916 ft | 206 kts | 106° |
| 2026-05-05 21:31 | 59.97742 | 10.82582 | 4863 ft | 207 kts | 77° |
| 2026-05-05 21:31 | 59.98160 | 10.85361 | 4454 ft | 209 kts | 70° |
| 2026-05-05 21:32 | 59.98645 | 10.88051 | 4172 ft | 203 kts | 69° |
| 2026-05-05 21:32 | 59.99118 | 10.90689 | 3955 ft | 201 kts | 69° |
| 2026-05-05 21:32 | 59.99582 | 10.93326 | 3908 ft | 201 kts | 70° |
| 2026-05-05 21:32 | 60.00230 | 10.95784 | 3928 ft | 201 kts | 43° |
| 2026-05-05 21:33 | 60.01321 | 10.97472 | 3914 ft | 197 kts | 27° |
| 2026-05-05 21:33 | 60.02591 | 10.98348 | 3924 ft | 188 kts | 11° |
| 2026-05-05 21:33 | 60.03850 | 10.98967 | 3811 ft | 184 kts | 14° |
| 2026-05-05 21:33 | 60.05056 | 10.99668 | 3566 ft | 182 kts | 15° |
| 2026-05-05 21:34 | 60.06287 | 11.00384 | 3285 ft | 181 kts | 14° |
| 2026-05-05 21:34 | 60.07460 | 11.01051 | 3027 ft | 172 kts | 14° |
| 2026-05-05 21:34 | 60.08577 | 11.01688 | 2791 ft | 162 kts | 13° |
| 2026-05-05 21:34 | 60.09643 | 11.02298 | 2570 ft | 158 kts | 13° |
| 2026-05-05 21:35 | 60.10697 | 11.02901 | 2339 ft | 155 kts | 13° |
| 2026-05-05 21:35 | 60.11695 | 11.03473 | 2132 ft | 144 kts | 13° |
| 2026-05-05 21:35 | 60.12631 | 11.04009 | 1936 ft | 138 kts | 12° |
| 2026-05-05 21:35 | 60.13554 | 11.04536 | 1752 ft | 138 kts | 13° |
| 2026-05-05 21:36 | 60.14482 | 11.05069 | 1537 ft | 139 kts | 13° |
| 2026-05-05 21:36 | 60.15414 | 11.05605 | 1327 ft | 139 kts | 14° |
| 2026-05-05 21:36 | 60.16348 | 11.06141 | 1139 ft | 140 kts | 14° |
| 2026-05-05 21:36 | 60.17285 | 11.06680 | 946 ft | 140 kts | 14° |
| 2026-05-05 21:37 | 60.18230 | 11.07200 | 788 ft | 141 kts | 14° |
| 2026-05-05 21:37 | 60.19157 | 11.07739 | 679 ft | 140 kts | 15° |
| 2026-05-05 21:37 | 60.19961 | 11.08211 | 678 ft | 84 kts | 16° |
| 2026-05-05 21:37 | 60.20202 | 11.08428 | 677 ft | 24 kts | 44° |
| 2026-05-05 21:38 | 60.20243 | 11.08617 | 682 ft | 6 kts | 107° |
| 2026-05-05 21:38 | 60.20222 | 11.08693 | 678 ft | 6 kts | 143° |
| 2026-05-05 21:38 | 60.20179 | 11.08737 | 683 ft | 11 kts | 149° |
| 2026-05-05 21:38 | 60.20133 | 11.08889 | 681 ft | 14 kts | 108° |
| 2026-05-05 21:39 | 60.20099 | 11.09111 | 681 ft | 18 kts | 106° |
| 2026-05-05 21:39 | 60.20065 | 11.09368 | 682 ft | 20 kts | 105° |
| 2026-05-05 21:39 | 60.20032 | 11.09603 | 685 ft | 9 kts | 106° |
| 2026-05-05 21:39 | 60.20001 | 11.09725 | 681 ft | 8 kts | 151° |
| 2026-05-05 21:40 | 60.19925 | 11.09739 | 685 ft | 13 kts | 188° |
| 2026-05-05 21:40 | 60.19846 | 11.09803 | 685 ft | 13 kts | 133° |
| 2026-05-05 21:40 | 60.19807 | 11.09967 | 685 ft | 8 kts | 106° |
| 2026-05-05 21:40 | 60.19806 | 11.09976 | 685 ft | 0 kts | 106° |